Time,TemperatureF,DewpointF,PressureIn,WindDirection,WindDirectionDegrees,WindSpeedMPH,WindSpeedGustMPH,Humidity,HourlyPrecipIn,Conditions,Clouds,dailyrainin,SoftwareType,DateUTC
2013-02-11 00:00:00,70.7,64.2,30.16,ESE,123,2.0,2.0,80,0.00,,,0.00,Wunderground v.1.15,2013-02-11 05:00:00,
2013-02-11 00:01:00,70.7,64.2,30.16,ESE,123,0.0,2.0,80,0.00,,,0.00,Wunderground v.1.15,2013-02-11 05:01:00,
2013-02-11 00:02:00,70.8,64.3,30.17,ESE,119,6.0,6.0,80,0.00,,,0.00,Wunderground v.1.15,2013-02-11 05:02:00,
2013-02-11 00:04:00,70.7,64.2,30.17,ESE,103,1.0,6.0,80,0.00,,,0.00,Wunderground v.1.15,2013-02-11 05:04:00,
2013-02-11 00:07:00,70.7,64.2,30.17,ESE,122,4.0,6.0,80,0.00,,,0.00,Wunderground v.1.15,2013-02-11 05:07:00,
2013-02-11 00:08:00,70.7,64.2,30.17,ESE,117,4.0,6.0,80,0.00,,,0.00,Wunderground v.1.15,2013-02-11 05:08:00,
2013-02-11 00:10:00,70.8,64.3,30.17,East,100,5.0,6.0,80,0.00,,,0.00,Wunderground v.1.15,2013-02-11 05:10:00,
2013-02-11 00:12:00,70.8,64.7,30.17,East,100,4.0,6.0,81,0.00,,,0.00,Wunderground v.1.15,2013-02-11 05:12:00,
2013-02-11 00:14:00,70.8,64.3,30.17,SE,136,6.0,6.0,80,0.00,,,0.00,Wunderground v.1.15,2013-02-11 05:14:00,
2013-02-11 00:15:00,70.8,64.3,30.17,SE,129,2.0,6.0,80,0.00,,,0.00,Wunderground v.1.15,2013-02-11 05:15:00,
2013-02-11 00:17:00,70.8,64.3,30.16,ESE,114,4.0,7.0,80,0.00,,,0.00,Wunderground v.1.15,2013-02-11 05:17:00,
2013-02-11 00:20:00,70.8,64.3,30.16,ESE,107,2.0,4.0,80,0.00,,,0.00,Wunderground v.1.15,2013-02-11 05:20:00,
2013-02-11 00:21:00,70.9,64.4,30.16,SE,130,5.0,5.0,80,0.00,,,0.00,Wunderground v.1.15,2013-02-11 05:21:00,
2013-02-11 00:25:00,70.8,64.3,30.16,ESE,123,4.0,5.0,80,0.00,,,0.00,Wunderground v.1.15,2013-02-11 05:25:00,
2013-02-11 00:26:00,70.8,64.3,30.16,SE,126,0.0,5.0,80,0.00,,,0.00,Wunderground v.1.15,2013-02-11 05:26:00,
2013-02-11 00:27:00,70.8,64.3,30.16,SSE,147,4.0,5.0,80,0.00,,,0.00,Wunderground v.1.15,2013-02-11 05:27:00,
2013-02-11 00:29:00,70.8,64.3,30.16,SE,125,6.0,6.0,80,0.00,,,0.00,Wunderground v.1.15,2013-02-11 05:29:00,
2013-02-11 00:32:00,70.8,64.0,30.16,ESE,119,6.0,6.0,79,0.00,,,0.00,Wunderground v.1.15,2013-02-11 05:32:00,
2013-02-11 00:34:00,70.8,64.0,30.16,ESE,119,6.0,6.0,79,0.00,,,0.00,Wunderground v.1.15,2013-02-11 05:34:00,
2013-02-11 00:35:00,70.8,64.0,30.16,SE,141,5.0,6.0,79,0.00,,,0.00,Wunderground v.1.15,2013-02-11 05:35:00,
2013-02-11 00:39:00,70.8,64.3,30.16,ESE,117,5.0,5.0,80,0.00,,,0.00,Wunderground v.1.15,2013-02-11 05:39:00,
2013-02-11 00:40:00,70.8,64.3,30.16,ESE,119,2.0,5.0,80,0.00,,,0.00,Wunderground v.1.15,2013-02-11 05:40:00,
2013-02-11 00:41:00,70.8,64.3,30.16,SE,133,7.0,7.0,80,0.00,,,0.00,Wunderground v.1.15,2013-02-11 05:41:00,
2013-02-11 00:45:00,70.8,64.3,30.16,SE,132,0.0,7.0,80,0.00,,,0.00,Wunderground v.1.15,2013-02-11 05:45:00,
2013-02-11 00:46:00,70.8,64.3,30.16,ESE,111,5.0,7.0,80,0.00,,,0.00,Wunderground v.1.15,2013-02-11 05:46:00,
2013-02-11 00:47:00,70.8,64.3,30.16,ESE,119,2.0,7.0,80,0.00,,,0.00,Wunderground v.1.15,2013-02-11 05:47:00,
2013-02-11 00:50:00,70.8,64.3,30.16,ESE,113,6.0,6.0,80,0.00,,,0.00,Wunderground v.1.15,2013-02-11 05:50:00,
2013-02-11 00:52:00,70.8,64.3,30.16,ESE,109,4.0,6.0,80,0.00,,,0.00,Wunderground v.1.15,2013-02-11 05:52:00,
2013-02-11 00:55:00,70.8,64.3,30.16,ESE,109,5.0,6.0,80,0.00,,,0.00,Wunderground v.1.15,2013-02-11 05:55:00,
2013-02-11 00:58:00,70.8,64.3,30.16,ESE,109,0.0,6.0,80,0.00,,,0.00,Wunderground v.1.15,2013-02-11 05:58:00,
2013-02-11 00:59:00,70.7,64.2,30.16,ESE,109,0.0,2.0,80,0.00,,,0.00,Wunderground v.1.15,2013-02-11 05:59:00,
2013-02-11 01:01:00,70.7,64.2,30.16,ESE,109,4.0,4.0,80,0.00,,,0.00,Wunderground v.1.15,2013-02-11 06:01:00,
2013-02-11 01:04:00,70.7,64.6,30.16,ESE,105,6.0,6.0,81,0.00,,,0.00,Wunderground v.1.15,2013-02-11 06:04:00,
2013-02-11 01:05:00,70.7,64.6,30.16,ESE,113,5.0,6.0,81,0.00,,,0.00,Wunderground v.1.15,2013-02-11 06:05:00,
2013-02-11 01:09:00,70.7,64.6,30.15,SE,134,2.0,3.0,81,0.00,,,0.00,Wunderground v.1.15,2013-02-11 06:09:00,
2013-02-11 01:11:00,70.7,64.6,30.16,ESE,115,5.0,5.0,81,0.00,,,0.00,Wunderground v.1.15,2013-02-11 06:11:00,
2013-02-11 01:14:00,70.6,64.5,30.16,SE,125,1.0,5.0,81,0.00,,,0.00,Wunderground v.1.15,2013-02-11 06:14:00,
2013-02-11 01:16:00,70.6,64.5,30.16,SE,134,5.0,5.0,81,0.00,,,0.00,Wunderground v.1.15,2013-02-11 06:16:00,
2013-02-11 01:18:00,70.5,64.4,30.16,SE,125,0.0,5.0,81,0.00,,,0.00,Wunderground v.1.15,2013-02-11 06:18:00,
2013-02-11 01:20:00,70.5,64.4,30.16,SE,127,0.0,5.0,81,0.00,,,0.00,Wunderground v.1.15,2013-02-11 06:20:00,
2013-02-11 01:21:00,70.5,64.4,30.16,SE,127,0.0,5.0,81,0.00,,,0.00,Wunderground v.1.15,2013-02-11 06:21:00,
2013-02-11 01:24:00,70.4,64.3,30.16,SE,128,0.0,5.0,81,0.00,,,0.00,Wunderground v.1.15,2013-02-11 06:24:00,
2013-02-11 01:25:00,70.4,64.3,30.16,SE,128,0.0,5.0,81,0.00,,,0.00,Wunderground v.1.15,2013-02-11 06:25:00,
2013-02-11 01:28:00,70.4,64.3,30.16,SE,131,1.0,5.0,81,0.00,,,0.00,Wunderground v.1.15,2013-02-11 06:28:00,
2013-02-11 01:29:00,70.4,64.3,30.16,SE,131,0.0,1.0,81,0.00,,,0.00,Wunderground v.1.15,2013-02-11 06:29:00,
2013-02-11 01:32:00,70.3,64.2,30.15,SE,131,0.0,1.0,81,0.00,,,0.00,Wunderground v.1.15,2013-02-11 06:32:00,
2013-02-11 01:34:00,70.2,64.1,30.15,SE,131,0.0,1.0,81,0.00,,,0.00,Wunderground v.1.15,2013-02-11 06:34:00,
2013-02-11 01:35:00,70.2,64.4,30.15,SE,131,0.0,1.0,82,0.00,,,0.00,Wunderground v.1.15,2013-02-11 06:35:00,
2013-02-11 01:40:00,70.1,64.3,30.15,SE,131,0.0,0.0,82,0.00,,,0.00,Wunderground v.1.15,2013-02-11 06:40:00,
2013-02-11 01:41:00,70.0,64.2,30.15,SE,131,0.0,0.0,82,0.00,,,0.00,Wunderground v.1.15,2013-02-11 06:41:00,
2013-02-11 01:42:00,70.0,64.2,30.15,SE,131,1.0,1.0,82,0.00,,,0.00,Wunderground v.1.15,2013-02-11 06:42:00,
2013-02-11 01:43:00,69.9,64.2,30.15,SE,131,0.0,1.0,82,0.00,,,0.00,Wunderground v.1.15,2013-02-11 06:43:00,
2013-02-11 01:47:00,69.8,64.1,30.15,SE,131,0.0,1.0,82,0.00,,,0.00,Wunderground v.1.15,2013-02-11 06:47:00,
2013-02-11 01:48:00,69.8,64.1,30.15,SE,131,2.0,2.0,82,0.00,,,0.00,Wunderground v.1.15,2013-02-11 06:48:00,
2013-02-11 01:50:00,69.8,64.4,30.15,SE,130,4.0,4.0,83,0.00,,,0.00,Wunderground v.1.15,2013-02-11 06:50:00,
2013-02-11 01:52:00,69.7,64.3,30.14,SE,130,0.0,4.0,83,0.00,,,0.00,Wunderground v.1.15,2013-02-11 06:52:00,
2013-02-11 01:54:00,69.7,64.3,30.14,SE,130,0.0,4.0,83,0.00,,,0.00,Wunderground v.1.15,2013-02-11 06:54:00,
2013-02-11 01:55:00,69.7,64.3,30.14,SE,130,2.0,4.0,83,0.00,,,0.00,Wunderground v.1.15,2013-02-11 06:55:00,
2013-02-11 01:58:00,69.6,64.2,30.15,SE,130,0.0,4.0,83,0.00,,,0.00,Wunderground v.1.15,2013-02-11 06:58:00,
2013-02-11 02:00:00,69.6,64.2,30.15,SE,130,0.0,1.0,83,0.00,,,0.00,Wunderground v.1.15,2013-02-11 07:00:00,
2013-02-11 02:01:00,69.6,64.2,30.14,SE,130,0.0,1.0,83,0.00,,,0.00,Wunderground v.1.15,2013-02-11 07:01:00,
2013-02-11 02:04:00,69.5,64.1,30.14,SE,130,0.0,4.0,83,0.00,,,0.00,Wunderground v.1.15,2013-02-11 07:04:00,
2013-02-11 02:05:00,69.5,64.1,30.15,SE,130,0.0,4.0,83,0.00,,,0.00,Wunderground v.1.15,2013-02-11 07:05:00,
2013-02-11 02:06:00,69.5,64.1,30.15,SE,130,0.0,4.0,83,0.00,,,0.00,Wunderground v.1.15,2013-02-11 07:06:00,
2013-02-11 02:10:00,69.5,64.1,30.14,SE,130,0.0,0.0,83,0.00,,,0.00,Wunderground v.1.15,2013-02-11 07:10:00,
2013-02-11 02:11:00,69.5,64.1,30.14,SE,130,0.0,0.0,83,0.00,,,0.00,Wunderground v.1.15,2013-02-11 07:11:00,
2013-02-11 02:15:00,69.3,64.3,30.14,SE,130,0.0,1.0,84,0.00,,,0.00,Wunderground v.1.15,2013-02-11 07:15:00,
2013-02-11 02:17:00,69.2,64.2,30.15,SE,130,0.0,1.0,84,0.00,,,0.00,Wunderground v.1.15,2013-02-11 07:17:00,
2013-02-11 02:21:00,68.9,63.5,30.14,SE,130,0.0,0.0,83,0.00,,,0.00,Wunderground v.1.15,2013-02-11 07:21:00,
2013-02-11 02:22:00,68.8,63.8,30.14,SE,130,0.0,0.0,84,0.00,,,0.00,Wunderground v.1.15,2013-02-11 07:22:00,
2013-02-11 02:26:00,68.5,63.5,30.14,SE,130,0.0,0.0,84,0.00,,,0.00,Wunderground v.1.15,2013-02-11 07:26:00,
2013-02-11 02:27:00,68.5,63.5,30.14,SE,130,0.0,0.0,84,0.00,,,0.00,Wunderground v.1.15,2013-02-11 07:27:00,
2013-02-11 02:28:00,68.4,63.4,30.14,SE,130,0.0,0.0,84,0.00,,,0.00,Wunderground v.1.15,2013-02-11 07:28:00,
2013-02-11 02:32:00,68.1,63.1,30.14,SE,130,0.0,0.0,84,0.00,,,0.00,Wunderground v.1.15,2013-02-11 07:32:00,
2013-02-11 02:33:00,68.0,63.0,30.14,SE,130,0.0,0.0,84,0.00,,,0.00,Wunderground v.1.15,2013-02-11 07:33:00,
2013-02-11 02:34:00,67.9,62.9,30.14,SE,130,0.0,0.0,84,0.00,,,0.00,Wunderground v.1.15,2013-02-11 07:34:00,
2013-02-11 02:38:00,67.6,62.9,30.14,SE,130,0.0,0.0,85,0.00,,,0.00,Wunderground v.1.15,2013-02-11 07:38:00,
2013-02-11 02:39:00,67.4,62.7,30.14,SE,130,0.0,0.0,85,0.00,,,0.00,Wunderground v.1.15,2013-02-11 07:39:00,
2013-02-11 02:43:00,67.0,62.7,30.14,SE,130,0.0,0.0,86,0.00,,,0.00,Wunderground v.1.15,2013-02-11 07:43:00,
2013-02-11 02:44:00,66.9,62.6,30.14,SE,130,0.0,0.0,86,0.00,,,0.00,Wunderground v.1.15,2013-02-11 07:44:00,
2013-02-11 02:49:00,66.4,62.4,30.14,SE,130,0.0,0.0,87,0.00,,,0.00,Wunderground v.1.15,2013-02-11 07:49:00,
2013-02-11 02:50:00,66.3,62.3,30.14,SE,130,0.0,0.0,87,0.00,,,0.00,Wunderground v.1.15,2013-02-11 07:50:00,
2013-02-11 02:54:00,66.0,62.3,30.14,SE,130,0.0,0.0,88,0.00,,,0.00,Wunderground v.1.15,2013-02-11 07:54:00,
2013-02-11 02:55:00,66.0,62.3,30.14,SE,130,0.0,0.0,88,0.00,,,0.00,Wunderground v.1.15,2013-02-11 07:55:00,
2013-02-11 02:59:00,66.3,63.0,30.13,SE,130,0.0,0.0,89,0.00,,,0.00,Wunderground v.1.15,2013-02-11 07:59:00,
2013-02-11 03:00:00,66.3,63.0,30.13,SE,130,0.0,0.0,89,0.00,,,0.00,Wunderground v.1.15,2013-02-11 08:00:00,
2013-02-11 03:01:00,66.3,63.0,30.13,SE,130,0.0,0.0,89,0.00,,,0.00,Wunderground v.1.15,2013-02-11 08:01:00,
2013-02-11 03:04:00,66.1,62.8,30.14,SE,130,0.0,0.0,89,0.00,,,0.00,Wunderground v.1.15,2013-02-11 08:04:00,
2013-02-11 03:06:00,66.1,62.8,30.13,SE,130,0.0,0.0,89,0.00,,,0.00,Wunderground v.1.15,2013-02-11 08:06:00,
2013-02-11 03:09:00,66.2,62.9,30.14,SE,130,0.0,0.0,89,0.00,,,0.00,Wunderground v.1.15,2013-02-11 08:09:00,
2013-02-11 03:11:00,66.1,62.8,30.14,SE,130,0.0,0.0,89,0.00,,,0.00,Wunderground v.1.15,2013-02-11 08:11:00,
2013-02-11 03:16:00,65.7,62.4,30.13,SE,130,0.0,0.0,89,0.00,,,0.00,Wunderground v.1.15,2013-02-11 08:16:00,
2013-02-11 03:17:00,65.7,62.4,30.13,SE,130,0.0,0.0,89,0.00,,,0.00,Wunderground v.1.15,2013-02-11 08:17:00,
2013-02-11 03:21:00,65.5,62.2,30.13,SE,130,0.0,0.0,89,0.00,,,0.00,Wunderground v.1.15,2013-02-11 08:21:00,
2013-02-11 03:22:00,65.4,62.1,30.13,SE,130,0.0,0.0,89,0.00,,,0.00,Wunderground v.1.15,2013-02-11 08:22:00,
2013-02-11 03:26:00,65.4,62.4,30.13,SE,130,0.0,0.0,90,0.00,,,0.00,Wunderground v.1.15,2013-02-11 08:26:00,
2013-02-11 03:27:00,65.5,62.5,30.13,SE,130,0.0,0.0,90,0.00,,,0.00,Wunderground v.1.15,2013-02-11 08:27:00,
2013-02-11 03:28:00,65.6,62.6,30.13,SE,130,0.0,0.0,90,0.00,,,0.00,Wunderground v.1.15,2013-02-11 08:28:00,
2013-02-11 03:31:00,65.7,62.7,30.13,SE,130,0.0,0.0,90,0.00,,,0.00,Wunderground v.1.15,2013-02-11 08:31:00,
2013-02-11 03:32:00,65.6,62.6,30.13,SE,130,0.0,0.0,90,0.00,,,0.00,Wunderground v.1.15,2013-02-11 08:32:00,
2013-02-11 03:33:00,65.6,62.6,30.13,SE,130,0.0,0.0,90,0.00,,,0.00,Wunderground v.1.15,2013-02-11 08:33:00,
2013-02-11 03:36:00,65.4,62.4,30.13,SE,130,0.0,0.0,90,0.00,,,0.00,Wunderground v.1.15,2013-02-11 08:36:00,
2013-02-11 03:38:00,65.4,62.4,30.13,SE,130,0.0,0.0,90,0.00,,,0.00,Wunderground v.1.15,2013-02-11 08:38:00,
2013-02-11 03:41:00,65.2,62.2,30.13,SE,130,0.0,0.0,90,0.00,,,0.00,Wunderground v.1.15,2013-02-11 08:41:00,
2013-02-11 03:43:00,65.2,62.2,30.13,SE,130,0.0,0.0,90,0.00,,,0.00,Wunderground v.1.15,2013-02-11 08:43:00,
2013-02-11 03:44:00,65.1,62.1,30.13,SE,130,0.0,0.0,90,0.00,,,0.00,Wunderground v.1.15,2013-02-11 08:44:00,
2013-02-11 03:46:00,65.0,62.0,30.13,SE,130,0.0,0.0,90,0.00,,,0.00,Wunderground v.1.15,2013-02-11 08:46:00,
2013-02-11 03:48:00,65.0,62.3,30.13,SE,130,0.0,0.0,91,0.00,,,0.00,Wunderground v.1.15,2013-02-11 08:48:00,
2013-02-11 03:49:00,65.0,62.3,30.13,SE,130,0.0,0.0,91,0.00,,,0.00,Wunderground v.1.15,2013-02-11 08:49:00,
2013-02-11 03:51:00,64.8,62.1,30.13,SE,130,0.0,0.0,91,0.00,,,0.00,Wunderground v.1.15,2013-02-11 08:51:00,
2013-02-11 03:53:00,64.7,62.0,30.13,SE,130,0.0,0.0,91,0.00,,,0.00,Wunderground v.1.15,2013-02-11 08:53:00,
2013-02-11 03:54:00,64.6,61.9,30.13,SE,130,0.0,0.0,91,0.00,,,0.00,Wunderground v.1.15,2013-02-11 08:54:00,
2013-02-11 03:56:00,64.6,61.9,30.13,SE,130,0.0,0.0,91,0.00,,,0.00,Wunderground v.1.15,2013-02-11 08:56:00,
2013-02-11 03:57:00,64.6,61.9,30.13,SE,130,0.0,0.0,91,0.00,,,0.00,Wunderground v.1.15,2013-02-11 08:57:00,
2013-02-11 03:59:00,64.6,61.9,30.13,SE,130,0.0,0.0,91,0.00,,,0.00,Wunderground v.1.15,2013-02-11 08:59:00,
2013-02-11 04:00:00,64.6,61.9,30.13,SE,130,0.0,0.0,91,0.00,,,0.00,Wunderground v.1.15,2013-02-11 09:00:00,
2013-02-11 04:02:00,64.3,61.6,30.13,SE,130,0.0,0.0,91,0.00,,,0.00,Wunderground v.1.15,2013-02-11 09:02:00,
2013-02-11 04:04:00,64.2,61.5,30.13,SE,130,0.0,0.0,91,0.00,,,0.00,Wunderground v.1.15,2013-02-11 09:04:00,
2013-02-11 04:06:00,64.0,61.3,30.13,SE,130,0.0,0.0,91,0.00,,,0.00,Wunderground v.1.15,2013-02-11 09:06:00,
2013-02-11 04:07:00,64.0,61.3,30.13,SE,130,0.0,0.0,91,0.00,,,0.00,Wunderground v.1.15,2013-02-11 09:07:00,
2013-02-11 04:09:00,63.9,61.5,30.13,SE,130,0.0,0.0,92,0.00,,,0.00,Wunderground v.1.15,2013-02-11 09:09:00,
2013-02-11 04:12:00,63.7,61.3,30.13,SE,130,0.0,0.0,92,0.00,,,0.00,Wunderground v.1.15,2013-02-11 09:12:00,
2013-02-11 04:13:00,63.7,61.3,30.13,SE,130,0.0,0.0,92,0.00,,,0.00,Wunderground v.1.15,2013-02-11 09:13:00,
2013-02-11 04:15:00,63.7,61.3,30.12,SE,130,0.0,0.0,92,0.00,,,0.00,Wunderground v.1.15,2013-02-11 09:15:00,
2013-02-11 04:18:00,63.6,61.2,30.13,SE,130,0.0,0.0,92,0.00,,,0.00,Wunderground v.1.15,2013-02-11 09:18:00,
2013-02-11 04:19:00,63.5,61.1,30.13,SE,130,0.0,0.0,92,0.00,,,0.00,Wunderground v.1.15,2013-02-11 09:19:00,
2013-02-11 04:20:00,63.4,61.0,30.13,SE,130,0.0,0.0,92,0.00,,,0.00,Wunderground v.1.15,2013-02-11 09:20:00,
2013-02-11 04:23:00,63.4,61.0,30.13,SE,130,0.0,0.0,92,0.00,,,0.00,Wunderground v.1.15,2013-02-11 09:23:00,
2013-02-11 04:25:00,63.3,60.9,30.13,SE,130,0.0,0.0,92,0.00,,,0.00,Wunderground v.1.15,2013-02-11 09:25:00,
2013-02-11 04:28:00,63.1,60.7,30.12,SE,130,0.0,0.0,92,0.00,,,0.00,Wunderground v.1.15,2013-02-11 09:28:00,
2013-02-11 04:29:00,63.1,60.7,30.12,SE,130,0.0,0.0,92,0.00,,,0.00,Wunderground v.1.15,2013-02-11 09:29:00,
2013-02-11 04:30:00,63.2,61.1,30.13,SE,130,0.0,0.0,93,0.00,,,0.00,Wunderground v.1.15,2013-02-11 09:30:00,
2013-02-11 04:31:00,63.2,61.1,30.13,SE,130,0.0,0.0,93,0.00,,,0.00,Wunderground v.1.15,2013-02-11 09:31:00,
2013-02-11 04:33:00,63.3,61.2,30.13,SE,130,0.0,0.0,93,0.00,,,0.00,Wunderground v.1.15,2013-02-11 09:33:00,
2013-02-11 04:34:00,63.3,61.2,30.13,SE,130,0.0,0.0,93,0.00,,,0.00,Wunderground v.1.15,2013-02-11 09:34:00,
2013-02-11 04:35:00,63.2,61.1,30.12,SE,130,0.0,0.0,93,0.00,,,0.00,Wunderground v.1.15,2013-02-11 09:35:00,
2013-02-11 04:36:00,63.2,61.1,30.12,SE,130,0.0,0.0,93,0.00,,,0.00,Wunderground v.1.15,2013-02-11 09:36:00,
2013-02-11 04:39:00,63.0,60.9,30.12,SE,130,0.0,0.0,93,0.00,,,0.00,Wunderground v.1.15,2013-02-11 09:39:00,
2013-02-11 04:40:00,63.0,60.9,30.13,SE,130,0.0,0.0,93,0.00,,,0.00,Wunderground v.1.15,2013-02-11 09:40:00,
2013-02-11 04:42:00,63.2,61.1,30.13,SE,130,0.0,0.0,93,0.00,,,0.00,Wunderground v.1.15,2013-02-11 09:42:00,
2013-02-11 04:44:00,63.2,61.4,30.12,SE,130,0.0,0.0,94,0.00,,,0.00,Wunderground v.1.15,2013-02-11 09:44:00,
2013-02-11 04:45:00,63.2,61.4,30.12,SE,130,0.0,0.0,94,0.00,,,0.00,Wunderground v.1.15,2013-02-11 09:45:00,
2013-02-11 04:46:00,63.2,61.4,30.12,SE,130,0.0,0.0,94,0.00,,,0.00,Wunderground v.1.15,2013-02-11 09:46:00,
2013-02-11 04:48:00,63.3,61.5,30.12,SE,130,0.0,0.0,94,0.00,,,0.00,Wunderground v.1.15,2013-02-11 09:48:00,
2013-02-11 04:49:00,63.3,61.5,30.12,SE,130,0.0,0.0,94,0.00,,,0.00,Wunderground v.1.15,2013-02-11 09:49:00,
2013-02-11 04:51:00,63.4,61.6,30.12,SE,130,0.0,0.0,94,0.00,,,0.00,Wunderground v.1.15,2013-02-11 09:51:00,
2013-02-11 04:53:00,63.7,61.9,30.12,SE,130,0.0,0.0,94,0.00,,,0.00,Wunderground v.1.15,2013-02-11 09:53:00,
2013-02-11 04:55:00,63.7,61.9,30.12,SE,130,0.0,0.0,94,0.00,,,0.00,Wunderground v.1.15,2013-02-11 09:55:00,
2013-02-11 04:56:00,63.6,61.8,30.13,SE,130,0.0,0.0,94,0.00,,,0.00,Wunderground v.1.15,2013-02-11 09:56:00,
2013-02-11 04:59:00,63.6,61.8,30.13,SE,130,0.0,0.0,94,0.00,,,0.00,Wunderground v.1.15,2013-02-11 09:59:00,
2013-02-11 05:00:00,63.6,61.8,30.13,SE,130,0.0,0.0,94,0.00,,,0.00,Wunderground v.1.15,2013-02-11 10:00:00,
2013-02-11 05:01:00,63.6,61.8,30.13,SE,130,0.0,0.0,94,0.00,,,0.00,Wunderground v.1.15,2013-02-11 10:01:00,
2013-02-11 05:04:00,63.7,61.9,30.13,SE,130,0.0,0.0,94,0.00,,,0.00,Wunderground v.1.15,2013-02-11 10:04:00,
2013-02-11 05:05:00,63.8,62.0,30.13,SE,130,0.0,0.0,94,0.00,,,0.00,Wunderground v.1.15,2013-02-11 10:05:00,
2013-02-11 05:07:00,63.9,62.1,30.13,SE,130,0.0,0.0,94,0.00,,,0.00,Wunderground v.1.15,2013-02-11 10:07:00,
2013-02-11 05:10:00,64.3,62.5,30.12,SE,130,0.0,0.0,94,0.00,,,0.00,Wunderground v.1.15,2013-02-11 10:10:00,
2013-02-11 05:11:00,64.3,62.5,30.12,SE,130,0.0,0.0,94,0.00,,,0.00,Wunderground v.1.15,2013-02-11 10:11:00,
2013-02-11 05:12:00,64.3,62.5,30.12,SE,130,0.0,0.0,94,0.00,,,0.00,Wunderground v.1.15,2013-02-11 10:12:00,
2013-02-11 05:15:00,64.0,61.9,30.13,SE,130,0.0,0.0,93,0.00,,,0.00,Wunderground v.1.15,2013-02-11 10:15:00,
2013-02-11 05:16:00,64.0,61.9,30.13,SE,130,0.0,0.0,93,0.00,,,0.00,Wunderground v.1.15,2013-02-11 10:16:00,
2013-02-11 05:18:00,63.9,61.8,30.13,SE,130,0.0,0.0,93,0.00,,,0.00,Wunderground v.1.15,2013-02-11 10:18:00,
2013-02-11 05:21:00,63.9,62.1,30.13,SE,130,0.0,0.0,94,0.00,,,0.00,Wunderground v.1.15,2013-02-11 10:21:00,
2013-02-11 05:23:00,63.9,62.1,30.13,SE,130,0.0,0.0,94,0.00,,,0.00,Wunderground v.1.15,2013-02-11 10:23:00,
2013-02-11 05:26:00,63.8,61.7,30.12,SE,130,0.0,0.0,93,0.00,,,0.00,Wunderground v.1.15,2013-02-11 10:26:00,
2013-02-11 05:28:00,64.0,62.2,30.12,SE,130,0.0,0.0,94,0.00,,,0.00,Wunderground v.1.15,2013-02-11 10:28:00,
2013-02-11 05:31:00,64.0,62.2,30.13,SE,130,0.0,0.0,94,0.00,,,0.00,Wunderground v.1.15,2013-02-11 10:31:00,
2013-02-11 05:32:00,64.0,62.2,30.13,SE,130,0.0,0.0,94,0.00,,,0.00,Wunderground v.1.15,2013-02-11 10:32:00,
2013-02-11 05:33:00,63.9,62.1,30.13,SE,130,0.0,0.0,94,0.00,,,0.00,Wunderground v.1.15,2013-02-11 10:33:00,
2013-02-11 05:35:00,63.9,61.8,30.13,SE,130,0.0,0.0,93,0.00,,,0.00,Wunderground v.1.15,2013-02-11 10:35:00,
2013-02-11 05:36:00,63.9,61.8,30.13,SE,130,0.0,0.0,93,0.00,,,0.00,Wunderground v.1.15,2013-02-11 10:36:00,
2013-02-11 05:37:00,63.8,61.7,30.13,SE,130,0.0,0.0,93,0.00,,,0.00,Wunderground v.1.15,2013-02-11 10:37:00,
2013-02-11 05:38:00,63.8,61.7,30.13,SE,130,0.0,0.0,93,0.00,,,0.00,Wunderground v.1.15,2013-02-11 10:38:00,
2013-02-11 05:41:00,64.0,62.2,30.13,SE,130,0.0,0.0,94,0.00,,,0.00,Wunderground v.1.15,2013-02-11 10:41:00,
2013-02-11 05:42:00,64.1,62.3,30.13,SE,130,0.0,0.0,94,0.00,,,0.00,Wunderground v.1.15,2013-02-11 10:42:00,
2013-02-11 05:43:00,64.2,62.4,30.13,SE,130,0.0,0.0,94,0.00,,,0.00,Wunderground v.1.15,2013-02-11 10:43:00,
2013-02-11 05:46:00,64.2,62.1,30.13,SE,130,0.0,0.0,93,0.00,,,0.00,Wunderground v.1.15,2013-02-11 10:46:00,
2013-02-11 05:47:00,64.1,62.3,30.13,SE,130,0.0,0.0,94,0.00,,,0.00,Wunderground v.1.15,2013-02-11 10:47:00,
2013-02-11 05:48:00,64.1,62.3,30.13,SE,130,0.0,0.0,94,0.00,,,0.00,Wunderground v.1.15,2013-02-11 10:48:00,
2013-02-11 05:49:00,64.1,62.3,30.13,SE,130,0.0,0.0,94,0.00,,,0.00,Wunderground v.1.15,2013-02-11 10:49:00,
2013-02-11 05:51:00,64.0,61.9,30.13,SE,130,0.0,0.0,93,0.00,,,0.00,Wunderground v.1.15,2013-02-11 10:51:00,
2013-02-11 05:52:00,63.9,61.8,30.13,SE,130,0.0,0.0,93,0.00,,,0.00,Wunderground v.1.15,2013-02-11 10:52:00,
2013-02-11 05:53:00,63.9,61.8,30.13,SE,130,0.0,0.0,93,0.00,,,0.00,Wunderground v.1.15,2013-02-11 10:53:00,
2013-02-11 05:54:00,63.9,62.1,30.13,SE,130,0.0,0.0,94,0.00,,,0.00,Wunderground v.1.15,2013-02-11 10:54:00,
2013-02-11 05:56:00,63.9,62.1,30.13,SE,130,0.0,0.0,94,0.00,,,0.00,Wunderground v.1.15,2013-02-11 10:56:00,
2013-02-11 05:58:00,63.9,62.1,30.13,SE,130,0.0,0.0,94,0.00,,,0.00,Wunderground v.1.15,2013-02-11 10:58:00,
2013-02-11 05:59:00,64.0,62.2,30.13,SE,130,0.0,0.0,94,0.00,,,0.00,Wunderground v.1.15,2013-02-11 10:59:00,
2013-02-11 06:00:00,64.0,62.2,30.13,SE,130,0.0,0.0,94,0.00,,,0.00,Wunderground v.1.15,2013-02-11 11:00:00,
2013-02-11 06:01:00,64.0,62.2,30.13,SE,130,0.0,0.0,94,0.00,,,0.00,Wunderground v.1.15,2013-02-11 11:01:00,
2013-02-11 06:03:00,63.9,62.1,30.13,SE,130,0.0,0.0,94,0.00,,,0.00,Wunderground v.1.15,2013-02-11 11:03:00,
2013-02-11 06:04:00,63.9,62.1,30.13,SE,130,0.0,0.0,94,0.00,,,0.00,Wunderground v.1.15,2013-02-11 11:04:00,
2013-02-11 06:05:00,63.8,61.7,30.13,SE,130,0.0,0.0,93,0.00,,,0.00,Wunderground v.1.15,2013-02-11 11:05:00,
2013-02-11 06:07:00,63.7,61.6,30.13,SE,130,0.0,0.0,93,0.00,,,0.00,Wunderground v.1.15,2013-02-11 11:07:00,
2013-02-11 06:08:00,63.6,61.5,30.13,SE,130,0.0,0.0,93,0.00,,,0.00,Wunderground v.1.15,2013-02-11 11:08:00,
2013-02-11 06:10:00,63.5,61.4,30.13,SE,130,0.0,0.0,93,0.00,,,0.00,Wunderground v.1.15,2013-02-11 11:10:00,
2013-02-11 06:11:00,63.5,61.4,30.13,SE,130,0.0,0.0,93,0.00,,,0.00,Wunderground v.1.15,2013-02-11 11:11:00,
2013-02-11 06:12:00,63.5,61.4,30.13,SE,130,0.0,0.0,93,0.00,,,0.00,Wunderground v.1.15,2013-02-11 11:12:00,
2013-02-11 06:14:00,63.5,61.4,30.13,SE,130,0.0,0.0,93,0.00,,,0.00,Wunderground v.1.15,2013-02-11 11:14:00,
2013-02-11 06:15:00,63.6,61.8,30.13,SE,130,0.0,0.0,94,0.00,,,0.00,Wunderground v.1.15,2013-02-11 11:15:00,
2013-02-11 06:16:00,63.8,62.0,30.13,SE,130,0.0,0.0,94,0.00,,,0.00,Wunderground v.1.15,2013-02-11 11:16:00,
2013-02-11 06:18:00,63.9,62.1,30.13,SE,130,0.0,0.0,94,0.00,,,0.00,Wunderground v.1.15,2013-02-11 11:18:00,
2013-02-11 06:19:00,63.8,62.0,30.13,SE,130,0.0,0.0,94,0.00,,,0.00,Wunderground v.1.15,2013-02-11 11:19:00,
2013-02-11 06:20:00,63.8,62.0,30.13,SE,130,0.0,0.0,94,0.00,,,0.00,Wunderground v.1.15,2013-02-11 11:20:00,
2013-02-11 06:22:00,63.7,61.6,30.13,SE,130,0.0,0.0,93,0.00,,,0.00,Wunderground v.1.15,2013-02-11 11:22:00,
2013-02-11 06:23:00,63.5,61.4,30.13,SE,130,0.0,0.0,93,0.00,,,0.00,Wunderground v.1.15,2013-02-11 11:23:00,
2013-02-11 06:24:00,63.3,61.2,30.13,SE,130,0.0,0.0,93,0.00,,,0.00,Wunderground v.1.15,2013-02-11 11:24:00,
2013-02-11 06:25:00,63.2,61.1,30.13,SE,130,0.0,0.0,93,0.00,,,0.00,Wunderground v.1.15,2013-02-11 11:25:00,
2013-02-11 06:27:00,63.0,60.9,30.13,SE,130,0.0,0.0,93,0.00,,,0.00,Wunderground v.1.15,2013-02-11 11:27:00,
2013-02-11 06:29:00,62.8,60.7,30.13,SE,130,0.0,0.0,93,0.00,,,0.00,Wunderground v.1.15,2013-02-11 11:29:00,
2013-02-11 06:30:00,62.7,60.6,30.14,SE,130,0.0,0.0,93,0.00,,,0.00,Wunderground v.1.15,2013-02-11 11:30:00,
2013-02-11 06:32:00,62.6,60.5,30.14,SE,130,0.0,0.0,93,0.00,,,0.00,Wunderground v.1.15,2013-02-11 11:32:00,
2013-02-11 06:34:00,62.4,60.3,30.14,SE,130,0.0,0.0,93,0.00,,,0.00,Wunderground v.1.15,2013-02-11 11:34:00,
2013-02-11 06:35:00,62.3,60.2,30.14,SE,130,0.0,0.0,93,0.00,,,0.00,Wunderground v.1.15,2013-02-11 11:35:00,
2013-02-11 06:37:00,62.2,60.2,30.14,SE,130,0.0,0.0,93,0.00,,,0.00,Wunderground v.1.15,2013-02-11 11:37:00,
2013-02-11 06:40:00,62.3,60.6,30.14,SE,130,0.0,0.0,94,0.00,,,0.00,Wunderground v.1.15,2013-02-11 11:40:00,
2013-02-11 06:41:00,62.3,60.6,30.14,SE,130,0.0,0.0,94,0.00,,,0.00,Wunderground v.1.15,2013-02-11 11:41:00,
2013-02-11 06:42:00,62.4,60.7,30.14,SE,130,0.0,0.0,94,0.00,,,0.00,Wunderground v.1.15,2013-02-11 11:42:00,
2013-02-11 06:46:00,62.5,60.7,30.14,SE,130,0.0,0.0,94,0.00,,,0.00,Wunderground v.1.15,2013-02-11 11:46:00,
2013-02-11 06:47:00,62.5,60.7,30.14,SE,130,0.0,0.0,94,0.00,,,0.00,Wunderground v.1.15,2013-02-11 11:47:00,
2013-02-11 06:51:00,62.4,60.7,30.14,SE,130,0.0,0.0,94,0.00,,,0.00,Wunderground v.1.15,2013-02-11 11:51:00,
2013-02-11 06:53:00,62.3,60.6,30.14,SE,130,0.0,0.0,94,0.00,,,0.00,Wunderground v.1.15,2013-02-11 11:53:00,
2013-02-11 06:56:00,62.1,60.4,30.14,SE,130,0.0,0.0,94,0.00,,,0.00,Wunderground v.1.15,2013-02-11 11:56:00,
2013-02-11 06:57:00,62.0,60.3,30.14,SE,130,0.0,0.0,94,0.00,,,0.00,Wunderground v.1.15,2013-02-11 11:57:00,
2013-02-11 06:58:00,62.0,60.3,30.14,SE,130,0.0,0.0,94,0.00,,,0.00,Wunderground v.1.15,2013-02-11 11:58:00,
2013-02-11 06:59:00,62.0,60.3,30.14,SE,130,0.0,0.0,94,0.00,,,0.00,Wunderground v.1.15,2013-02-11 11:59:00,
2013-02-11 07:01:00,62.0,60.3,30.14,SE,130,0.0,0.0,94,0.00,,,0.00,Wunderground v.1.15,2013-02-11 12:01:00,
2013-02-11 07:03:00,62.1,60.7,30.14,SE,130,0.0,0.0,95,0.00,,,0.00,Wunderground v.1.15,2013-02-11 12:03:00,
2013-02-11 07:04:00,62.2,60.8,30.14,SE,130,0.0,0.0,95,0.00,,,0.00,Wunderground v.1.15,2013-02-11 12:04:00,
2013-02-11 07:06:00,62.3,60.8,30.14,SE,130,0.0,0.0,95,0.00,,,0.00,Wunderground v.1.15,2013-02-11 12:06:00,
2013-02-11 07:08:00,62.3,60.8,30.14,SE,130,0.0,0.0,95,0.00,,,0.00,Wunderground v.1.15,2013-02-11 12:08:00,
2013-02-11 07:09:00,62.4,60.9,30.14,SE,130,0.0,0.0,95,0.00,,,0.00,Wunderground v.1.15,2013-02-11 12:09:00,
2013-02-11 07:10:00,62.4,60.9,30.14,SE,130,0.0,0.0,95,0.00,,,0.00,Wunderground v.1.15,2013-02-11 12:10:00,
2013-02-11 07:12:00,62.5,61.0,30.14,SE,130,0.0,0.0,95,0.00,,,0.00,Wunderground v.1.15,2013-02-11 12:12:00,
2013-02-11 07:13:00,62.6,61.1,30.15,SE,130,0.0,0.0,95,0.00,,,0.00,Wunderground v.1.15,2013-02-11 12:13:00,
2013-02-11 07:15:00,62.7,61.2,30.14,SE,130,0.0,0.0,95,0.00,,,0.00,Wunderground v.1.15,2013-02-11 12:15:00,
2013-02-11 07:17:00,62.9,61.4,30.15,SE,130,0.0,0.0,95,0.00,,,0.00,Wunderground v.1.15,2013-02-11 12:17:00,
2013-02-11 07:19:00,63.1,61.6,30.14,SE,130,0.0,0.0,95,0.00,,,0.00,Wunderground v.1.15,2013-02-11 12:19:00,
2013-02-11 07:20:00,63.2,61.7,30.15,SE,130,0.0,0.0,95,0.00,,,0.00,Wunderground v.1.15,2013-02-11 12:20:00,
2013-02-11 07:22:00,63.6,62.1,30.15,SE,130,0.0,0.0,95,0.00,,,0.00,Wunderground v.1.15,2013-02-11 12:22:00,
2013-02-11 07:24:00,63.9,62.7,30.14,SE,130,0.0,0.0,96,0.00,,,0.00,Wunderground v.1.15,2013-02-11 12:24:00,
2013-02-11 07:26:00,64.0,62.5,30.15,SE,130,0.0,0.0,95,0.00,,,0.00,Wunderground v.1.15,2013-02-11 12:26:00,
2013-02-11 07:27:00,64.2,62.7,30.15,SE,130,0.0,0.0,95,0.00,,,0.00,Wunderground v.1.15,2013-02-11 12:27:00,
2013-02-11 07:29:00,64.3,62.8,30.15,SE,130,0.0,0.0,95,0.00,,,0.00,Wunderground v.1.15,2013-02-11 12:29:00,
2013-02-11 07:31:00,64.5,63.0,30.15,SE,130,0.0,0.0,95,0.00,,,0.00,Wunderground v.1.15,2013-02-11 12:31:00,
2013-02-11 07:33:00,64.8,63.3,30.15,SE,130,0.0,0.0,95,0.00,,,0.00,Wunderground v.1.15,2013-02-11 12:33:00,
2013-02-11 07:34:00,65.0,63.5,30.15,SE,130,0.0,0.0,95,0.00,,,0.00,Wunderground v.1.15,2013-02-11 12:34:00,
2013-02-11 07:36:00,65.3,63.8,30.15,SE,130,0.0,0.0,95,0.00,,,0.00,Wunderground v.1.15,2013-02-11 12:36:00,
2013-02-11 07:37:00,65.3,63.8,30.15,SE,130,0.0,0.0,95,0.00,,,0.00,Wunderground v.1.15,2013-02-11 12:37:00,
2013-02-11 07:38:00,65.6,64.1,30.15,SE,130,0.0,0.0,95,0.00,,,0.00,Wunderground v.1.15,2013-02-11 12:38:00,
2013-02-11 07:42:00,66.3,64.5,30.15,SE,130,0.0,0.0,94,0.00,,,0.00,Wunderground v.1.15,2013-02-11 12:42:00,
2013-02-11 07:43:00,66.6,64.5,30.15,SE,130,0.0,0.0,93,0.00,,,0.00,Wunderground v.1.15,2013-02-11 12:43:00,
2013-02-11 07:47:00,67.1,64.7,30.15,SE,130,0.0,0.0,92,0.00,,,0.00,Wunderground v.1.15,2013-02-11 12:47:00,
2013-02-11 07:48:00,67.2,64.8,30.15,SE,130,0.0,0.0,92,0.00,,,0.00,Wunderground v.1.15,2013-02-11 12:48:00,
2013-02-11 07:49:00,67.3,64.9,30.15,SE,130,0.0,0.0,92,0.00,,,0.00,Wunderground v.1.15,2013-02-11 12:49:00,
2013-02-11 07:53:00,67.7,65.0,30.16,SE,130,0.0,0.0,91,0.00,,,0.00,Wunderground v.1.15,2013-02-11 12:53:00,
2013-02-11 07:54:00,67.9,65.2,30.16,SE,130,0.0,0.0,91,0.00,,,0.00,Wunderground v.1.15,2013-02-11 12:54:00,
2013-02-11 07:55:00,68.0,65.0,30.16,SE,130,0.0,0.0,90,0.00,,,0.00,Wunderground v.1.15,2013-02-11 12:55:00,
2013-02-11 07:58:00,68.3,64.9,30.16,SE,130,0.0,0.0,89,0.00,,,0.00,Wunderground v.1.15,2013-02-11 12:58:00,
2013-02-11 07:59:00,68.5,65.1,30.16,SE,130,0.0,0.0,89,0.00,,,0.00,Wunderground v.1.15,2013-02-11 12:59:00,
2013-02-11 08:00:00,68.7,65.3,30.16,SE,130,0.0,0.0,89,0.00,,,0.00,Wunderground v.1.15,2013-02-11 13:00:00,
2013-02-11 08:03:00,69.0,65.6,30.16,SE,130,0.0,0.0,89,0.00,,,0.00,Wunderground v.1.15,2013-02-11 13:03:00,
2013-02-11 08:05:00,69.1,65.4,30.16,SE,130,0.0,0.0,88,0.00,,,0.00,Wunderground v.1.15,2013-02-11 13:05:00,
2013-02-11 08:06:00,69.3,65.6,30.16,SE,130,0.0,0.0,88,0.00,,,0.00,Wunderground v.1.15,2013-02-11 13:06:00,
2013-02-11 08:09:00,69.5,65.8,30.16,SE,130,0.0,0.0,88,0.00,,,0.00,Wunderground v.1.15,2013-02-11 13:09:00,
2013-02-11 08:10:00,69.7,66.0,30.16,SE,130,0.0,0.0,88,0.00,,,0.00,Wunderground v.1.15,2013-02-11 13:10:00,
2013-02-11 08:11:00,69.8,65.8,30.16,SE,130,2.0,2.0,87,0.00,,,0.00,Wunderground v.1.15,2013-02-11 13:11:00,
2013-02-11 08:14:00,70.2,66.1,30.16,SE,130,0.0,4.0,87,0.00,,,0.00,Wunderground v.1.15,2013-02-11 13:14:00,
2013-02-11 08:15:00,70.2,66.1,30.16,SE,130,0.0,4.0,87,0.00,,,0.00,Wunderground v.1.15,2013-02-11 13:15:00,
2013-02-11 08:16:00,70.4,66.0,30.16,SE,130,0.0,4.0,86,0.00,,,0.00,Wunderground v.1.15,2013-02-11 13:16:00,
2013-02-11 08:19:00,70.9,66.5,30.16,SE,128,0.0,1.0,86,0.00,,,0.00,Wunderground v.1.15,2013-02-11 13:19:00,
2013-02-11 08:20:00,70.9,66.5,30.16,ESE,113,4.0,4.0,86,0.00,,,0.00,Wunderground v.1.15,2013-02-11 13:20:00,
2013-02-11 08:22:00,71.2,66.5,30.16,ESE,111,5.0,5.0,85,0.00,,,0.00,Wunderground v.1.15,2013-02-11 13:22:00,
2013-02-11 08:25:00,71.4,66.3,30.17,ESE,109,0.0,6.0,84,0.00,,,0.00,Wunderground v.1.15,2013-02-11 13:25:00,
2013-02-11 08:28:00,71.7,66.6,30.16,ESE,120,4.0,6.0,84,0.00,,,0.00,Wunderground v.1.15,2013-02-11 13:28:00,
2013-02-11 08:30:00,71.8,66.4,30.16,ESE,121,2.0,3.0,83,0.00,,,0.00,Wunderground v.1.15,2013-02-11 13:30:00,
2013-02-11 08:31:00,71.9,66.5,30.17,ESE,113,5.0,5.0,83,0.00,,,0.00,Wunderground v.1.15,2013-02-11 13:31:00,
2013-02-11 08:33:00,72.0,66.6,30.17,ESE,113,2.0,6.0,83,0.00,,,0.00,Wunderground v.1.15,2013-02-11 13:33:00,
2013-02-11 08:35:00,72.1,66.6,30.17,ESE,120,5.0,6.0,83,0.00,,,0.00,Wunderground v.1.15,2013-02-11 13:35:00,
2013-02-11 08:36:00,72.2,66.7,30.17,ESE,121,0.0,6.0,83,0.00,,,0.00,Wunderground v.1.15,2013-02-11 13:36:00,
2013-02-11 08:38:00,72.2,66.7,30.17,ESE,121,1.0,6.0,83,0.00,,,0.00,Wunderground v.1.15,2013-02-11 13:38:00,
2013-02-11 08:40:00,72.4,66.6,30.17,SE,142,4.0,6.0,82,0.00,,,0.00,Wunderground v.1.15,2013-02-11 13:40:00,
2013-02-11 08:41:00,72.4,66.6,30.17,SE,140,4.0,6.0,82,0.00,,,0.00,Wunderground v.1.15,2013-02-11 13:41:00,
2013-02-11 08:43:00,72.5,66.7,30.17,SE,136,4.0,6.0,82,0.00,,,0.00,Wunderground v.1.15,2013-02-11 13:43:00,
2013-02-11 08:47:00,72.8,67.0,30.17,SE,128,5.0,6.0,82,0.00,,,0.00,Wunderground v.1.15,2013-02-11 13:47:00,
2013-02-11 08:48:00,73.0,67.2,30.17,ESE,117,0.0,6.0,82,0.00,,,0.00,Wunderground v.1.15,2013-02-11 13:48:00,
2013-02-11 08:49:00,73.0,66.8,30.17,ESE,119,0.0,6.0,81,0.00,,,0.00,Wunderground v.1.15,2013-02-11 13:49:00,
2013-02-11 08:52:00,73.1,66.6,30.17,SE,127,4.0,8.0,80,0.00,,,0.00,Wunderground v.1.15,2013-02-11 13:52:00,
2013-02-11 08:53:00,73.1,66.6,30.17,SE,146,7.0,8.0,80,0.00,,,0.00,Wunderground v.1.15,2013-02-11 13:53:00,
2013-02-11 08:54:00,73.2,66.7,30.17,SE,127,5.0,8.0,80,0.00,,,0.00,Wunderground v.1.15,2013-02-11 13:54:00,
2013-02-11 08:58:00,73.3,66.8,30.17,SSE,165,4.0,8.0,80,0.00,,,0.00,Wunderground v.1.15,2013-02-11 13:58:00,
2013-02-11 08:59:00,73.3,66.8,30.17,SE,138,4.0,8.0,80,0.00,,,0.00,Wunderground v.1.15,2013-02-11 13:59:00,
2013-02-11 09:00:00,73.4,66.9,30.17,ESE,104,4.0,5.0,80,0.00,,,0.00,Wunderground v.1.15,2013-02-11 14:00:00,
2013-02-11 09:03:00,73.3,66.4,30.17,SE,132,6.0,10.0,79,0.00,,,0.00,Wunderground v.1.15,2013-02-11 14:03:00,
2013-02-11 09:04:00,73.4,66.5,30.17,ESE,120,4.0,10.0,79,0.00,,,0.00,Wunderground v.1.15,2013-02-11 14:04:00,
2013-02-11 09:05:00,73.3,66.4,30.17,ESE,121,1.0,10.0,79,0.00,,,0.00,Wunderground v.1.15,2013-02-11 14:05:00,
2013-02-11 09:08:00,73.3,66.4,30.17,ESE,109,5.0,10.0,79,0.00,,,0.00,Wunderground v.1.15,2013-02-11 14:08:00,
2013-02-11 09:09:00,73.3,66.4,30.17,SSE,148,7.0,7.0,79,0.00,,,0.00,Wunderground v.1.15,2013-02-11 14:09:00,
2013-02-11 09:10:00,73.3,66.4,30.17,ESE,122,7.0,7.0,79,0.00,,,0.00,Wunderground v.1.15,2013-02-11 14:10:00,
2013-02-11 09:13:00,73.5,66.2,30.17,SE,128,11.0,12.0,78,0.00,,,0.00,Wunderground v.1.15,2013-02-11 14:13:00,
2013-02-11 09:15:00,73.6,66.3,30.18,SSE,159,8.0,12.0,78,0.00,,,0.00,Wunderground v.1.15,2013-02-11 14:15:00,
2013-02-11 09:18:00,73.8,66.5,30.18,SE,134,5.0,13.0,78,0.00,,,0.00,Wunderground v.1.15,2013-02-11 14:18:00,
2013-02-11 09:20:00,73.9,66.6,30.18,SSE,154,4.0,9.0,78,0.00,,,0.00,Wunderground v.1.15,2013-02-11 14:20:00,
2013-02-11 09:25:00,73.8,66.5,30.18,ESE,119,7.0,10.0,78,0.00,,,0.00,Wunderground v.1.15,2013-02-11 14:25:00,
2013-02-11 09:26:00,73.8,66.5,30.18,ESE,111,7.0,11.0,78,0.00,,,0.00,Wunderground v.1.15,2013-02-11 14:26:00,
2013-02-11 09:30:00,74.0,66.0,30.18,SE,128,9.0,9.0,76,0.00,,,0.00,Wunderground v.1.15,2013-02-11 14:30:00,
2013-02-11 09:31:00,74.0,66.0,30.18,SE,137,6.0,9.0,76,0.00,,,0.00,Wunderground v.1.15,2013-02-11 14:31:00,
2013-02-11 09:35:00,74.4,66.7,30.18,SSE,151,6.0,12.0,77,0.00,,,0.00,Wunderground v.1.15,2013-02-11 14:35:00,
2013-02-11 09:36:00,74.4,66.7,30.18,SSE,159,8.0,12.0,77,0.00,,,0.00,Wunderground v.1.15,2013-02-11 14:36:00,
2013-02-11 09:40:00,74.2,66.5,30.18,SE,134,3.0,8.0,77,0.00,,,0.00,Wunderground v.1.15,2013-02-11 14:40:00,
2013-02-11 09:41:00,74.2,66.5,30.18,ESE,119,3.0,8.0,77,0.00,,,0.00,Wunderground v.1.15,2013-02-11 14:41:00,
2013-02-11 09:42:00,74.1,66.4,30.18,ESE,121,7.0,11.0,77,0.00,,,0.00,Wunderground v.1.15,2013-02-11 14:42:00,
2013-02-11 09:46:00,74.0,66.3,30.18,SE,143,9.0,11.0,77,0.00,,,0.00,Wunderground v.1.15,2013-02-11 14:46:00,
2013-02-11 09:47:00,74.0,66.3,30.18,ESE,110,6.0,11.0,77,0.00,,,0.00,Wunderground v.1.15,2013-02-11 14:47:00,
2013-02-11 09:51:00,74.2,66.5,30.18,SSE,158,7.0,9.0,77,0.00,,,0.00,Wunderground v.1.15,2013-02-11 14:51:00,
2013-02-11 09:52:00,74.2,66.5,30.18,ESE,122,5.0,9.0,77,0.00,,,0.00,Wunderground v.1.15,2013-02-11 14:52:00,
2013-02-11 09:53:00,74.2,66.5,30.18,South,182,7.0,10.0,77,0.00,,,0.00,Wunderground v.1.15,2013-02-11 14:53:00,
2013-02-11 09:57:00,74.3,66.2,30.18,SE,133,5.0,12.0,76,0.00,,,0.00,Wunderground v.1.15,2013-02-11 14:57:00,
2013-02-11 09:58:00,74.2,66.1,30.18,ESE,123,6.0,12.0,76,0.00,,,0.00,Wunderground v.1.15,2013-02-11 14:58:00,
2013-02-11 10:02:00,74.1,66.4,30.18,SE,134,10.0,10.0,77,0.00,,,0.00,Wunderground v.1.15,2013-02-11 15:02:00,
2013-02-11 10:03:00,74.2,66.5,30.18,SE,137,11.0,11.0,77,0.00,,,0.00,Wunderground v.1.15,2013-02-11 15:03:00,
2013-02-11 10:04:00,74.3,66.6,30.18,SE,132,8.0,11.0,77,0.00,,,0.00,Wunderground v.1.15,2013-02-11 15:04:00,
2013-02-11 10:07:00,74.7,67.0,30.18,SE,145,5.0,11.0,77,0.00,,,0.00,Wunderground v.1.15,2013-02-11 15:07:00,
2013-02-11 10:08:00,74.8,67.1,30.18,ESE,109,8.0,11.0,77,0.00,,,0.00,Wunderground v.1.15,2013-02-11 15:08:00,
2013-02-11 10:09:00,74.9,66.8,30.18,SE,130,5.0,11.0,76,0.00,,,0.00,Wunderground v.1.15,2013-02-11 15:09:00,
2013-02-11 10:13:00,75.3,67.2,30.18,ESE,115,8.0,9.0,76,0.00,,,0.00,Wunderground v.1.15,2013-02-11 15:13:00,
2013-02-11 10:14:00,75.3,66.8,30.18,SE,142,6.0,10.0,75,0.00,,,0.00,Wunderground v.1.15,2013-02-11 15:14:00,
2013-02-11 10:15:00,75.3,66.8,30.18,SE,134,10.0,10.0,75,0.00,,,0.00,Wunderground v.1.15,2013-02-11 15:15:00,
2013-02-11 10:18:00,75.1,66.6,30.18,ESE,119,5.0,11.0,75,0.00,,,0.00,Wunderground v.1.15,2013-02-11 15:18:00,
2013-02-11 10:19:00,75.0,66.5,30.18,SE,124,5.0,6.0,75,0.00,,,0.00,Wunderground v.1.15,2013-02-11 15:19:00,
2013-02-11 10:20:00,75.0,66.9,30.18,SE,136,4.0,8.0,76,0.00,,,0.00,Wunderground v.1.15,2013-02-11 15:20:00,
2013-02-11 10:24:00,74.9,66.4,30.18,ESE,117,5.0,9.0,75,0.00,,,0.00,Wunderground v.1.15,2013-02-11 15:24:00,
2013-02-11 10:25:00,74.8,66.7,30.18,SSE,147,5.0,9.0,76,0.00,,,0.00,Wunderground v.1.15,2013-02-11 15:25:00,
2013-02-11 10:29:00,74.6,66.5,30.18,SSE,158,10.0,12.0,76,0.00,,,0.00,Wunderground v.1.15,2013-02-11 15:29:00,
2013-02-11 10:30:00,74.6,66.5,30.18,SE,136,10.0,11.0,76,0.00,,,0.00,Wunderground v.1.15,2013-02-11 15:30:00,
2013-02-11 10:31:00,74.6,66.5,30.18,ESE,117,6.0,11.0,76,0.00,,,0.00,Wunderground v.1.15,2013-02-11 15:31:00,
2013-02-11 10:34:00,74.9,66.8,30.18,ESE,113,9.0,11.0,76,0.00,,,0.00,Wunderground v.1.15,2013-02-11 15:34:00,
2013-02-11 10:35:00,74.9,66.8,30.18,SSE,149,9.0,12.0,76,0.00,,,0.00,Wunderground v.1.15,2013-02-11 15:35:00,
2013-02-11 10:36:00,74.9,66.8,30.18,SE,140,8.0,12.0,76,0.00,,,0.00,Wunderground v.1.15,2013-02-11 15:36:00,
2013-02-11 10:39:00,74.9,66.8,30.18,East,87,9.0,9.0,76,0.00,,,0.00,Wunderground v.1.15,2013-02-11 15:39:00,
2013-02-11 10:40:00,74.9,66.8,30.18,ESE,105,6.0,9.0,76,0.00,,,0.00,Wunderground v.1.15,2013-02-11 15:40:00,
2013-02-11 10:41:00,74.9,66.8,30.18,SE,124,7.0,10.0,76,0.00,,,0.00,Wunderground v.1.15,2013-02-11 15:41:00,
2013-02-11 10:42:00,75.0,66.9,30.18,ESE,121,7.0,10.0,76,0.00,,,0.00,Wunderground v.1.15,2013-02-11 15:42:00,
2013-02-11 10:44:00,75.0,66.5,30.18,SE,138,7.0,10.0,75,0.00,,,0.00,Wunderground v.1.15,2013-02-11 15:44:00,
2013-02-11 10:46:00,75.1,66.6,30.18,ESE,106,7.0,12.0,75,0.00,,,0.00,Wunderground v.1.15,2013-02-11 15:46:00,
2013-02-11 10:47:00,75.1,66.6,30.18,ESE,105,7.0,12.0,75,0.00,,,0.00,Wunderground v.1.15,2013-02-11 15:47:00,
2013-02-11 10:48:00,75.2,67.1,30.18,ESE,111,7.0,12.0,76,0.00,,,0.00,Wunderground v.1.15,2013-02-11 15:48:00,
2013-02-11 10:50:00,75.2,66.7,30.18,ESE,121,9.0,12.0,75,0.00,,,0.00,Wunderground v.1.15,2013-02-11 15:50:00,
2013-02-11 10:52:00,75.1,66.2,30.18,SE,133,9.0,14.0,74,0.00,,,0.00,Wunderground v.1.15,2013-02-11 15:52:00,
2013-02-11 10:53:00,75.0,66.5,30.18,SSE,155,1.0,14.0,75,0.00,,,0.00,Wunderground v.1.15,2013-02-11 15:53:00,
2013-02-11 10:55:00,75.1,66.6,30.18,SSE,148,8.0,14.0,75,0.00,,,0.00,Wunderground v.1.15,2013-02-11 15:55:00,
2013-02-11 10:57:00,75.5,67.0,30.18,SSE,147,4.0,14.0,75,0.00,,,0.00,Wunderground v.1.15,2013-02-11 15:57:00,
2013-02-11 10:58:00,75.6,67.1,30.18,SE,141,7.0,14.0,75,0.00,,,0.00,Wunderground v.1.15,2013-02-11 15:58:00,
2013-02-11 11:00:00,75.7,66.8,30.18,SSE,152,6.0,10.0,74,0.00,,,0.00,Wunderground v.1.15,2013-02-11 16:00:00,
2013-02-11 11:02:00,75.8,66.9,30.17,ESE,113,6.0,13.0,74,0.00,,,0.00,Wunderground v.1.15,2013-02-11 16:02:00,
2013-02-11 11:03:00,75.8,66.5,30.18,SSE,157,10.0,13.0,73,0.00,,,0.00,Wunderground v.1.15,2013-02-11 16:03:00,
2013-02-11 11:04:00,75.9,66.6,30.18,East,101,9.0,13.0,73,0.00,,,0.00,Wunderground v.1.15,2013-02-11 16:04:00,
2013-02-11 11:05:00,75.9,66.6,30.18,SE,131,9.0,13.0,73,0.00,,,0.00,Wunderground v.1.15,2013-02-11 16:05:00,
2013-02-11 11:08:00,76.0,66.3,30.17,South,184,8.0,13.0,72,0.00,,,0.00,Wunderground v.1.15,2013-02-11 16:08:00,
2013-02-11 11:09:00,76.0,66.7,30.17,SSE,150,5.0,13.0,73,0.00,,,0.00,Wunderground v.1.15,2013-02-11 16:09:00,
2013-02-11 11:11:00,75.8,66.5,30.17,SE,138,9.0,15.0,73,0.00,,,0.00,Wunderground v.1.15,2013-02-11 16:11:00,
2013-02-11 11:13:00,75.5,66.6,30.17,SE,136,8.0,15.0,74,0.00,,,0.00,Wunderground v.1.15,2013-02-11 16:13:00,
2013-02-11 11:14:00,75.3,66.4,30.17,SSE,148,9.0,15.0,74,0.00,,,0.00,Wunderground v.1.15,2013-02-11 16:14:00,
2013-02-11 11:15:00,75.3,66.4,30.17,SSE,150,9.0,15.0,74,0.00,,,0.00,Wunderground v.1.15,2013-02-11 16:15:00,
2013-02-11 11:17:00,75.4,66.9,30.17,SE,126,11.0,15.0,75,0.00,,,0.00,Wunderground v.1.15,2013-02-11 16:17:00,
2013-02-11 11:19:00,75.4,66.9,30.17,ESE,122,6.0,8.0,75,0.00,,,0.00,Wunderground v.1.15,2013-02-11 16:19:00,
2013-02-11 11:20:00,75.5,67.0,30.17,SE,146,4.0,8.0,75,0.00,,,0.00,Wunderground v.1.15,2013-02-11 16:20:00,
2013-02-11 11:22:00,75.8,67.3,30.17,SE,146,5.0,8.0,75,0.00,,,0.00,Wunderground v.1.15,2013-02-11 16:22:00,
2013-02-11 11:24:00,75.8,66.5,30.17,ESE,102,6.0,11.0,73,0.00,,,0.00,Wunderground v.1.15,2013-02-11 16:24:00,
2013-02-11 11:25:00,75.8,66.5,30.17,ESE,117,7.0,11.0,73,0.00,,,0.00,Wunderground v.1.15,2013-02-11 16:25:00,
2013-02-11 11:27:00,75.9,67.0,30.17,SSE,148,11.0,11.0,74,0.00,,,0.00,Wunderground v.1.15,2013-02-11 16:27:00,
2013-02-11 11:30:00,75.6,66.7,30.17,East,93,7.0,7.0,74,0.00,,,0.00,Wunderground v.1.15,2013-02-11 16:30:00,
2013-02-11 11:32:00,75.6,67.5,30.17,ESE,109,5.0,11.0,76,0.00,,,0.00,Wunderground v.1.15,2013-02-11 16:32:00,
2013-02-11 11:35:00,75.7,67.2,30.17,SE,132,6.0,11.0,75,0.00,,,0.00,Wunderground v.1.15,2013-02-11 16:35:00,
2013-02-11 11:37:00,75.6,66.7,30.17,SSE,157,6.0,11.0,74,0.00,,,0.00,Wunderground v.1.15,2013-02-11 16:37:00,
2013-02-11 11:40:00,75.4,66.5,30.17,SE,127,4.0,6.0,74,0.00,,,0.00,Wunderground v.1.15,2013-02-11 16:40:00,
2013-02-11 11:42:00,75.3,66.8,30.17,SE,143,9.0,9.0,75,0.00,,,0.00,Wunderground v.1.15,2013-02-11 16:42:00,
2013-02-11 11:43:00,75.3,66.8,30.17,SE,138,5.0,9.0,75,0.00,,,0.00,Wunderground v.1.15,2013-02-11 16:43:00,
2013-02-11 11:45:00,75.3,66.8,30.17,ESE,121,6.0,10.0,75,0.00,,,0.00,Wunderground v.1.15,2013-02-11 16:45:00,
2013-02-11 11:47:00,75.3,66.8,30.17,SSE,161,6.0,12.0,75,0.00,,,0.00,Wunderground v.1.15,2013-02-11 16:47:00,
2013-02-11 11:48:00,75.3,66.8,30.17,SSE,153,10.0,12.0,75,0.00,,,0.00,Wunderground v.1.15,2013-02-11 16:48:00,
2013-02-11 11:50:00,75.3,66.8,30.17,SE,126,5.0,8.0,75,0.00,,,0.00,Wunderground v.1.15,2013-02-11 16:50:00,
2013-02-11 11:52:00,75.2,66.7,30.17,SE,125,7.0,9.0,75,0.00,,,0.00,Wunderground v.1.15,2013-02-11 16:52:00,
2013-02-11 11:53:00,75.3,66.8,30.17,SE,128,6.0,9.0,75,0.00,,,0.00,Wunderground v.1.15,2013-02-11 16:53:00,
2013-02-11 11:54:00,75.3,67.2,30.17,ESE,115,3.0,9.0,76,0.00,,,0.00,Wunderground v.1.15,2013-02-11 16:54:00,
2013-02-11 11:55:00,75.3,66.8,30.17,ESE,121,9.0,10.0,75,0.00,,,0.00,Wunderground v.1.15,2013-02-11 16:55:00,
2013-02-11 11:58:00,75.2,66.7,30.17,SSE,159,7.0,10.0,75,0.00,,,0.00,Wunderground v.1.15,2013-02-11 16:58:00,
2013-02-11 11:59:00,75.2,66.7,30.17,ESE,113,5.0,10.0,75,0.00,,,0.00,Wunderground v.1.15,2013-02-11 16:59:00,
2013-02-11 12:01:00,75.3,66.8,30.17,SE,135,5.0,11.0,75,0.00,,,0.00,Wunderground v.1.15,2013-02-11 17:01:00,
2013-02-11 12:03:00,75.4,66.9,30.17,ESE,115,5.0,11.0,75,0.00,,,0.00,Wunderground v.1.15,2013-02-11 17:03:00,
2013-02-11 12:04:00,75.4,66.9,30.17,SSE,153,9.0,11.0,75,0.00,,,0.00,Wunderground v.1.15,2013-02-11 17:04:00,
2013-02-11 12:07:00,75.4,66.5,30.17,ESE,119,5.0,12.0,74,0.00,,,0.00,Wunderground v.1.15,2013-02-11 17:07:00,
2013-02-11 12:08:00,75.3,66.8,30.17,SE,129,5.0,12.0,75,0.00,,,0.00,Wunderground v.1.15,2013-02-11 17:08:00,
2013-02-11 12:09:00,75.4,66.9,30.17,SE,134,8.0,12.0,75,0.00,,,0.00,Wunderground v.1.15,2013-02-11 17:09:00,
2013-02-11 12:12:00,75.5,66.6,30.17,SE,129,6.0,11.0,74,0.00,,,0.00,Wunderground v.1.15,2013-02-11 17:12:00,
2013-02-11 12:13:00,75.5,67.0,30.17,South,171,5.0,11.0,75,0.00,,,0.00,Wunderground v.1.15,2013-02-11 17:13:00,
2013-02-11 12:14:00,75.6,67.1,30.17,SSE,153,5.0,11.0,75,0.00,,,0.00,Wunderground v.1.15,2013-02-11 17:14:00,
2013-02-11 12:15:00,75.7,67.2,30.17,ESE,117,7.0,11.0,75,0.00,,,0.00,Wunderground v.1.15,2013-02-11 17:15:00,
2013-02-11 12:18:00,75.7,66.8,30.16,SSE,152,8.0,11.0,74,0.00,,,0.00,Wunderground v.1.15,2013-02-11 17:18:00,
2013-02-11 12:20:00,75.6,66.7,30.16,ESE,109,9.0,9.0,74,0.00,,,0.00,Wunderground v.1.15,2013-02-11 17:20:00,
2013-02-11 12:23:00,75.5,66.6,30.16,SE,145,7.0,11.0,74,0.00,,,0.00,Wunderground v.1.15,2013-02-11 17:23:00,
2013-02-11 12:24:00,75.6,66.7,30.16,SSE,148,0.0,11.0,74,0.00,,,0.00,Wunderground v.1.15,2013-02-11 17:24:00,
2013-02-11 12:25:00,75.7,66.8,30.16,ESE,117,0.0,11.0,74,0.00,,,0.00,Wunderground v.1.15,2013-02-11 17:25:00,
2013-02-11 12:29:00,76.6,67.3,30.16,SE,132,7.0,11.0,73,0.00,,,0.00,Wunderground v.1.15,2013-02-11 17:29:00,
2013-02-11 12:30:00,76.5,67.2,30.16,SSE,152,8.0,9.0,73,0.00,,,0.00,Wunderground v.1.15,2013-02-11 17:30:00,
2013-02-11 12:31:00,76.5,67.2,30.16,SE,126,9.0,10.0,73,0.00,,,0.00,Wunderground v.1.15,2013-02-11 17:31:00,
2013-02-11 12:34:00,76.1,66.8,30.16,ESE,120,1.0,10.0,73,0.00,,,0.00,Wunderground v.1.15,2013-02-11 17:34:00,
2013-02-11 12:36:00,76.0,66.7,30.16,SE,132,8.0,10.0,73,0.00,,,0.00,Wunderground v.1.15,2013-02-11 17:36:00,
2013-02-11 12:39:00,75.9,66.6,30.15,SE,132,8.0,8.0,73,0.00,,,0.00,Wunderground v.1.15,2013-02-11 17:39:00,
2013-02-11 12:41:00,75.8,66.5,30.15,SE,134,7.0,11.0,73,0.00,,,0.00,Wunderground v.1.15,2013-02-11 17:41:00,
2013-02-11 12:44:00,75.8,66.5,30.15,SE,138,5.0,11.0,73,0.00,,,0.00,Wunderground v.1.15,2013-02-11 17:44:00,
2013-02-11 12:46:00,75.8,66.9,30.15,SE,130,7.0,11.0,74,0.00,,,0.00,Wunderground v.1.15,2013-02-11 17:46:00,
2013-02-11 12:50:00,75.9,66.6,30.15,ESE,121,5.0,9.0,73,0.00,,,0.00,Wunderground v.1.15,2013-02-11 17:50:00,
2013-02-11 12:51:00,75.9,67.0,30.15,SSE,148,10.0,10.0,74,0.00,,,0.00,Wunderground v.1.15,2013-02-11 17:51:00,
2013-02-11 12:52:00,75.8,66.9,30.15,SSE,147,6.0,10.0,74,0.00,,,0.00,Wunderground v.1.15,2013-02-11 17:52:00,
2013-02-11 12:55:00,75.7,66.4,30.14,SE,143,6.0,12.0,73,0.00,,,0.00,Wunderground v.1.15,2013-02-11 17:55:00,
2013-02-11 12:56:00,75.7,66.4,30.14,SE,134,9.0,12.0,73,0.00,,,0.00,Wunderground v.1.15,2013-02-11 17:56:00,
2013-02-11 12:57:00,75.7,66.4,30.14,SE,126,8.0,12.0,73,0.00,,,0.00,Wunderground v.1.15,2013-02-11 17:57:00,
2013-02-11 13:01:00,75.8,66.9,30.14,SSE,164,5.0,11.0,74,0.00,,,0.00,Wunderground v.1.15,2013-02-11 18:01:00,
2013-02-11 13:02:00,75.8,66.9,30.14,ESE,103,6.0,11.0,74,0.00,,,0.00,Wunderground v.1.15,2013-02-11 18:02:00,
2013-02-11 13:03:00,75.8,66.9,30.14,SSE,150,7.0,11.0,74,0.00,,,0.00,Wunderground v.1.15,2013-02-11 18:03:00,
2013-02-11 13:07:00,75.8,67.3,30.14,SE,129,0.0,11.0,75,0.00,,,0.00,Wunderground v.1.15,2013-02-11 18:07:00,
2013-02-11 13:08:00,75.9,67.0,30.14,SE,143,0.0,11.0,74,0.00,,,0.00,Wunderground v.1.15,2013-02-11 18:08:00,
2013-02-11 13:12:00,76.1,67.2,30.14,SE,140,4.0,7.0,74,0.00,,,0.00,Wunderground v.1.15,2013-02-11 18:12:00,
2013-02-11 13:13:00,76.1,67.2,30.14,SE,140,5.0,9.0,74,0.00,,,0.00,Wunderground v.1.15,2013-02-11 18:13:00,
2013-02-11 13:17:00,75.9,67.0,30.14,SSE,148,7.0,13.0,74,0.00,,,0.00,Wunderground v.1.15,2013-02-11 18:17:00,
2013-02-11 13:18:00,75.9,67.0,30.14,SE,128,7.0,13.0,74,0.00,,,0.00,Wunderground v.1.15,2013-02-11 18:18:00,
2013-02-11 13:23:00,75.8,66.9,30.14,SE,144,11.0,11.0,74,0.00,,,0.00,Wunderground v.1.15,2013-02-11 18:23:00,
2013-02-11 13:24:00,75.7,66.8,30.13,ESE,113,6.0,11.0,74,0.00,,,0.00,Wunderground v.1.15,2013-02-11 18:24:00,
2013-02-11 13:28:00,75.7,67.2,30.13,SSE,155,8.0,11.0,75,0.00,,,0.00,Wunderground v.1.15,2013-02-11 18:28:00,
2013-02-11 13:29:00,76.0,67.1,30.13,SE,132,5.0,7.0,74,0.00,,,0.00,Wunderground v.1.15,2013-02-11 18:29:00,
2013-02-11 13:33:00,76.7,67.8,30.13,SE,140,5.0,8.0,74,0.00,,,0.00,Wunderground v.1.15,2013-02-11 18:33:00,
2013-02-11 13:35:00,76.9,67.2,30.13,SSE,159,6.0,11.0,72,0.00,,,0.00,Wunderground v.1.15,2013-02-11 18:35:00,
2013-02-11 13:38:00,76.8,67.1,30.13,SE,142,7.0,11.0,72,0.00,,,0.00,Wunderground v.1.15,2013-02-11 18:38:00,
2013-02-11 13:39:00,76.8,66.7,30.13,SE,130,6.0,11.0,71,0.00,,,0.00,Wunderground v.1.15,2013-02-11 18:39:00,
2013-02-11 13:40:00,76.7,67.0,30.13,SSE,161,7.0,7.0,72,0.00,,,0.00,Wunderground v.1.15,2013-02-11 18:40:00,
2013-02-11 13:44:00,76.5,66.8,30.12,East,94,7.0,10.0,72,0.00,,,0.00,Wunderground v.1.15,2013-02-11 18:44:00,
2013-02-11 13:46:00,76.5,67.2,30.12,ESE,119,4.0,10.0,73,0.00,,,0.00,Wunderground v.1.15,2013-02-11 18:46:00,
2013-02-11 13:49:00,76.7,67.0,30.12,ESE,119,9.0,9.0,72,0.00,,,0.00,Wunderground v.1.15,2013-02-11 18:49:00,
2013-02-11 13:50:00,76.7,67.0,30.12,ESE,106,6.0,11.0,72,0.00,,,0.00,Wunderground v.1.15,2013-02-11 18:50:00,
2013-02-11 13:51:00,76.7,67.0,30.12,East,99,7.0,11.0,72,0.00,,,0.00,Wunderground v.1.15,2013-02-11 18:51:00,
2013-02-11 13:54:00,76.9,66.8,30.12,SE,142,3.0,11.0,71,0.00,,,0.00,Wunderground v.1.15,2013-02-11 18:54:00,
2013-02-11 13:55:00,76.8,66.7,30.12,ESE,119,8.0,11.0,71,0.00,,,0.00,Wunderground v.1.15,2013-02-11 18:55:00,
2013-02-11 13:56:00,76.7,67.0,30.12,SE,137,8.0,11.0,72,0.00,,,0.00,Wunderground v.1.15,2013-02-11 18:56:00,
2013-02-11 14:00:00,76.4,67.5,30.12,SSE,149,7.0,8.0,74,0.00,,,0.00,Wunderground v.1.15,2013-02-11 19:00:00,
2013-02-11 14:02:00,76.4,67.1,30.12,SSE,164,4.0,9.0,73,0.00,,,0.00,Wunderground v.1.15,2013-02-11 19:02:00,
2013-02-11 14:07:00,76.4,66.7,30.12,ESE,117,7.0,10.0,72,0.00,,,0.00,Wunderground v.1.15,2013-02-11 19:07:00,
2013-02-11 14:08:00,76.5,67.2,30.11,SE,128,6.0,10.0,73,0.00,,,0.00,Wunderground v.1.15,2013-02-11 19:08:00,
2013-02-11 14:12:00,76.8,66.7,30.12,SSE,148,0.0,6.0,71,0.00,,,0.00,Wunderground v.1.15,2013-02-11 19:12:00,
2013-02-11 14:13:00,76.9,66.8,30.11,SSE,147,1.0,6.0,71,0.00,,,0.00,Wunderground v.1.15,2013-02-11 19:13:00,
2013-02-11 14:17:00,78.1,67.9,30.11,ESE,118,8.0,11.0,71,0.00,,,0.00,Wunderground v.1.15,2013-02-11 19:17:00,
2013-02-11 14:18:00,78.1,67.5,30.11,ESE,121,10.0,11.0,70,0.00,,,0.00,Wunderground v.1.15,2013-02-11 19:18:00,
2013-02-11 14:22:00,77.1,67.0,30.11,SSE,150,5.0,9.0,71,0.00,,,0.00,Wunderground v.1.15,2013-02-11 19:22:00,
2013-02-11 14:23:00,77.0,66.9,30.11,SSE,158,4.0,9.0,71,0.00,,,0.00,Wunderground v.1.15,2013-02-11 19:23:00,
2013-02-11 14:28:00,76.9,66.8,30.11,SSE,159,0.0,9.0,71,0.00,,,0.00,Wunderground v.1.15,2013-02-11 19:28:00,
2013-02-11 14:29:00,76.9,66.8,30.11,SSE,159,0.0,9.0,71,0.00,,,0.00,Wunderground v.1.15,2013-02-11 19:29:00,
2013-02-11 14:30:00,77.0,66.5,30.11,SSE,157,7.0,7.0,70,0.00,,,0.00,Wunderground v.1.15,2013-02-11 19:30:00,
2013-02-11 14:33:00,77.1,66.6,30.11,SE,144,4.0,9.0,70,0.00,,,0.00,Wunderground v.1.15,2013-02-11 19:33:00,
2013-02-11 14:35:00,77.2,67.1,30.11,SSW,193,6.0,9.0,71,0.00,,,0.00,Wunderground v.1.15,2013-02-11 19:35:00,
2013-02-11 14:36:00,77.4,66.8,30.11,SSE,153,4.0,9.0,70,0.00,,,0.00,Wunderground v.1.15,2013-02-11 19:36:00,
2013-02-11 14:38:00,77.3,66.7,30.10,SSE,155,9.0,11.0,70,0.00,,,0.00,Wunderground v.1.15,2013-02-11 19:38:00,
2013-02-11 14:39:00,77.3,66.7,30.10,SSE,156,9.0,11.0,70,0.00,,,0.00,Wunderground v.1.15,2013-02-11 19:39:00,
2013-02-11 14:40:00,77.3,67.2,30.10,SSE,164,7.0,8.0,71,0.00,,,0.00,Wunderground v.1.15,2013-02-11 19:40:00,
2013-02-11 14:41:00,77.2,66.7,30.10,SE,144,7.0,11.0,70,0.00,,,0.00,Wunderground v.1.15,2013-02-11 19:41:00,
2013-02-11 14:44:00,77.0,66.5,30.10,SE,130,9.0,11.0,70,0.00,,,0.00,Wunderground v.1.15,2013-02-11 19:44:00,
2013-02-11 14:45:00,77.0,66.5,30.10,SSE,165,8.0,11.0,70,0.00,,,0.00,Wunderground v.1.15,2013-02-11 19:45:00,
2013-02-11 14:46:00,76.9,66.8,30.10,SE,131,7.0,11.0,71,0.00,,,0.00,Wunderground v.1.15,2013-02-11 19:46:00,
2013-02-11 14:49:00,76.8,66.7,30.10,SE,146,5.0,11.0,71,0.00,,,0.00,Wunderground v.1.15,2013-02-11 19:49:00,
2013-02-11 14:50:00,76.8,66.7,30.10,SSE,163,5.0,6.0,71,0.00,,,0.00,Wunderground v.1.15,2013-02-11 19:50:00,
2013-02-11 14:52:00,76.8,66.7,30.10,SE,140,5.0,9.0,71,0.00,,,0.00,Wunderground v.1.15,2013-02-11 19:52:00,
2013-02-11 14:54:00,77.0,66.9,30.10,SE,132,9.0,9.0,71,0.00,,,0.00,Wunderground v.1.15,2013-02-11 19:54:00,
2013-02-11 14:55:00,77.0,66.9,30.10,South,178,0.0,9.0,71,0.00,,,0.00,Wunderground v.1.15,2013-02-11 19:55:00,
2013-02-11 14:56:00,77.1,67.0,30.10,SSE,166,9.0,9.0,71,0.00,,,0.00,Wunderground v.1.15,2013-02-11 19:56:00,
2013-02-11 14:58:00,77.0,66.5,30.10,SSW,200,6.0,9.0,70,0.00,,,0.00,Wunderground v.1.15,2013-02-11 19:58:00,
2013-02-11 14:59:00,76.9,66.8,30.10,SE,140,4.0,5.0,71,0.00,,,0.00,Wunderground v.1.15,2013-02-11 19:59:00,
2013-02-11 15:01:00,77.0,66.5,30.09,South,169,7.0,9.0,70,0.00,,,0.00,Wunderground v.1.15,2013-02-11 20:01:00,
2013-02-11 15:02:00,76.9,66.4,30.09,SSE,165,4.0,9.0,70,0.00,,,0.00,Wunderground v.1.15,2013-02-11 20:02:00,
2013-02-11 15:03:00,77.0,66.5,30.09,SSE,155,5.0,9.0,70,0.00,,,0.00,Wunderground v.1.15,2013-02-11 20:03:00,
2013-02-11 15:04:00,77.0,66.9,30.09,SSE,168,4.0,9.0,71,0.00,,,0.00,Wunderground v.1.15,2013-02-11 20:04:00,
2013-02-11 15:06:00,77.0,66.9,30.09,SE,137,7.0,10.0,71,0.00,,,0.00,Wunderground v.1.15,2013-02-11 20:06:00,
2013-02-11 15:07:00,77.0,66.9,30.09,SE,136,9.0,12.0,71,0.00,,,0.00,Wunderground v.1.15,2013-02-11 20:07:00,
2013-02-11 15:08:00,76.9,66.8,30.09,SE,142,7.0,12.0,71,0.00,,,0.00,Wunderground v.1.15,2013-02-11 20:08:00,
2013-02-11 15:10:00,76.8,66.7,30.09,South,177,5.0,8.0,71,0.00,,,0.00,Wunderground v.1.15,2013-02-11 20:10:00,
2013-02-11 15:11:00,76.7,67.0,30.09,ESE,103,10.0,10.0,72,0.00,,,0.00,Wunderground v.1.15,2013-02-11 20:11:00,
2013-02-11 15:13:00,76.7,67.0,30.09,SSE,150,8.0,11.0,72,0.00,,,0.00,Wunderground v.1.15,2013-02-11 20:13:00,
2013-02-11 15:16:00,76.5,66.8,30.09,SE,131,5.0,11.0,72,0.00,,,0.00,Wunderground v.1.15,2013-02-11 20:16:00,
2013-02-11 15:17:00,76.5,66.8,30.09,ESE,102,7.0,11.0,72,0.00,,,0.00,Wunderground v.1.15,2013-02-11 20:17:00,
2013-02-11 15:18:00,76.4,67.1,30.09,ESE,105,7.0,11.0,73,0.00,,,0.00,Wunderground v.1.15,2013-02-11 20:18:00,
2013-02-11 15:19:00,76.4,67.1,30.09,SSE,158,7.0,11.0,73,0.00,,,0.00,Wunderground v.1.15,2013-02-11 20:19:00,
2013-02-11 15:21:00,76.2,66.9,30.09,ESE,117,1.0,7.0,73,0.00,,,0.00,Wunderground v.1.15,2013-02-11 20:21:00,
2013-02-11 15:22:00,76.3,67.0,30.09,SSE,157,8.0,8.0,73,0.00,,,0.00,Wunderground v.1.15,2013-02-11 20:22:00,
2013-02-11 15:23:00,76.3,67.0,30.09,ESE,116,12.0,12.0,73,0.00,,,0.00,Wunderground v.1.15,2013-02-11 20:23:00,
2013-02-11 15:24:00,76.4,66.7,30.09,SE,130,8.0,12.0,72,0.00,,,0.00,Wunderground v.1.15,2013-02-11 20:24:00,
2013-02-11 15:26:00,76.5,66.8,30.09,SE,133,8.0,12.0,72,0.00,,,0.00,Wunderground v.1.15,2013-02-11 20:26:00,
2013-02-11 15:28:00,76.6,66.9,30.09,ESE,122,7.0,12.0,72,0.00,,,0.00,Wunderground v.1.15,2013-02-11 20:28:00,
2013-02-11 15:29:00,76.8,67.1,30.09,SSE,168,5.0,12.0,72,0.00,,,0.00,Wunderground v.1.15,2013-02-11 20:29:00,
2013-02-11 15:31:00,76.9,66.8,30.09,SE,137,6.0,10.0,71,0.00,,,0.00,Wunderground v.1.15,2013-02-11 20:31:00,
2013-02-11 15:33:00,76.8,66.7,30.09,ESE,103,7.0,11.0,71,0.00,,,0.00,Wunderground v.1.15,2013-02-11 20:33:00,
2013-02-11 15:34:00,76.8,67.1,30.09,SE,130,6.0,11.0,72,0.00,,,0.00,Wunderground v.1.15,2013-02-11 20:34:00,
2013-02-11 15:36:00,76.8,66.7,30.09,SE,142,10.0,11.0,71,0.00,,,0.00,Wunderground v.1.15,2013-02-11 20:36:00,
2013-02-11 15:38:00,76.9,66.8,30.09,ESE,110,5.0,11.0,71,0.00,,,0.00,Wunderground v.1.15,2013-02-11 20:38:00,
2013-02-11 15:39:00,76.9,66.8,30.09,SE,138,10.0,11.0,71,0.00,,,0.00,Wunderground v.1.15,2013-02-11 20:39:00,
2013-02-11 15:40:00,76.9,66.8,30.09,SE,140,8.0,9.0,71,0.00,,,0.00,Wunderground v.1.15,2013-02-11 20:40:00,
2013-02-11 15:42:00,76.8,66.7,30.09,ESE,122,9.0,10.0,71,0.00,,,0.00,Wunderground v.1.15,2013-02-11 20:42:00,
2013-02-11 15:44:00,76.8,66.7,30.09,SE,136,8.0,11.0,71,0.00,,,0.00,Wunderground v.1.15,2013-02-11 20:44:00,
2013-02-11 15:45:00,76.8,66.7,30.09,SE,135,5.0,11.0,71,0.00,,,0.00,Wunderground v.1.15,2013-02-11 20:45:00,
2013-02-11 15:48:00,76.7,66.6,30.09,SE,128,7.0,11.0,71,0.00,,,0.00,Wunderground v.1.15,2013-02-11 20:48:00,
2013-02-11 15:49:00,76.7,66.6,30.09,ESE,108,8.0,11.0,71,0.00,,,0.00,Wunderground v.1.15,2013-02-11 20:49:00,
2013-02-11 15:50:00,76.7,66.6,30.09,SE,141,6.0,8.0,71,0.00,,,0.00,Wunderground v.1.15,2013-02-11 20:50:00,
2013-02-11 15:53:00,76.9,66.8,30.09,SSE,148,0.0,8.0,71,0.00,,,0.00,Wunderground v.1.15,2013-02-11 20:53:00,
2013-02-11 15:55:00,77.0,66.5,30.09,SSE,153,9.0,9.0,70,0.00,,,0.00,Wunderground v.1.15,2013-02-11 20:55:00,
2013-02-11 15:58:00,76.8,66.3,30.09,SE,134,4.0,11.0,70,0.00,,,0.00,Wunderground v.1.15,2013-02-11 20:58:00,
2013-02-11 16:00:00,76.7,66.2,30.09,SE,146,4.0,8.0,70,0.00,,,0.00,Wunderground v.1.15,2013-02-11 21:00:00,
2013-02-11 16:01:00,76.7,66.2,30.09,SSE,150,5.0,8.0,70,0.00,,,0.00,Wunderground v.1.15,2013-02-11 21:01:00,
2013-02-11 16:03:00,76.7,66.2,30.09,SSW,197,11.0,11.0,70,0.00,,,0.00,Wunderground v.1.15,2013-02-11 21:03:00,
2013-02-11 16:06:00,76.6,66.1,30.09,SE,143,8.0,11.0,70,0.00,,,0.00,Wunderground v.1.15,2013-02-11 21:06:00,
2013-02-11 16:07:00,76.6,66.1,30.09,SE,124,8.0,11.0,70,0.00,,,0.00,Wunderground v.1.15,2013-02-11 21:07:00,
2013-02-11 16:08:00,76.5,66.4,30.09,SSE,155,6.0,11.0,71,0.00,,,0.00,Wunderground v.1.15,2013-02-11 21:08:00,
2013-02-11 16:11:00,76.5,66.4,30.09,SSE,155,5.0,11.0,71,0.00,,,0.00,Wunderground v.1.15,2013-02-11 21:11:00,
2013-02-11 16:12:00,76.5,66.4,30.09,South,181,7.0,11.0,71,0.00,,,0.00,Wunderground v.1.15,2013-02-11 21:12:00,
2013-02-11 16:14:00,76.4,66.7,30.09,SE,137,9.0,13.0,72,0.00,,,0.00,Wunderground v.1.15,2013-02-11 21:14:00,
2013-02-11 16:17:00,76.3,66.6,30.09,ESE,117,7.0,13.0,72,0.00,,,0.00,Wunderground v.1.15,2013-02-11 21:17:00,
2013-02-11 16:22:00,76.3,66.6,30.09,East,98,4.0,10.0,72,0.00,,,0.00,Wunderground v.1.15,2013-02-11 21:22:00,
2013-02-11 16:27:00,76.3,66.6,30.09,SSE,160,2.0,10.0,72,0.00,,,0.00,Wunderground v.1.15,2013-02-11 21:27:00,
2013-02-11 16:28:00,76.4,66.7,30.09,SSE,159,7.0,10.0,72,0.00,,,0.00,Wunderground v.1.15,2013-02-11 21:28:00,
2013-02-11 16:32:00,76.2,66.5,30.09,East,95,7.0,9.0,72,0.00,,,0.00,Wunderground v.1.15,2013-02-11 21:32:00,
2013-02-11 16:33:00,76.2,66.5,30.09,ESE,110,7.0,9.0,72,0.00,,,0.00,Wunderground v.1.15,2013-02-11 21:33:00,
2013-02-11 16:38:00,76.1,66.8,30.09,SE,130,7.0,12.0,73,0.00,,,0.00,Wunderground v.1.15,2013-02-11 21:38:00,
2013-02-11 16:39:00,76.0,66.3,30.09,ESE,119,5.0,12.0,72,0.00,,,0.00,Wunderground v.1.15,2013-02-11 21:39:00,
2013-02-11 16:43:00,75.8,66.5,30.09,SE,132,13.0,13.0,73,0.00,,,0.00,Wunderground v.1.15,2013-02-11 21:43:00,
2013-02-11 16:45:00,75.7,66.4,30.08,SSE,150,9.0,13.0,73,0.00,,,0.00,Wunderground v.1.15,2013-02-11 21:45:00,
2013-02-11 16:48:00,75.8,66.5,30.08,SSE,161,7.0,13.0,73,0.00,,,0.00,Wunderground v.1.15,2013-02-11 21:48:00,
2013-02-11 16:49:00,75.8,66.5,30.08,SSE,163,5.0,13.0,73,0.00,,,0.00,Wunderground v.1.15,2013-02-11 21:49:00,
2013-02-11 16:50:00,75.8,66.1,30.08,SSE,155,9.0,11.0,72,0.00,,,0.00,Wunderground v.1.15,2013-02-11 21:50:00,
2013-02-11 16:53:00,75.8,66.5,30.08,SSE,163,6.0,11.0,73,0.00,,,0.00,Wunderground v.1.15,2013-02-11 21:53:00,
2013-02-11 16:54:00,75.8,66.5,30.08,South,171,7.0,11.0,73,0.00,,,0.00,Wunderground v.1.15,2013-02-11 21:54:00,
2013-02-11 16:55:00,75.8,66.5,30.08,SE,132,8.0,11.0,73,0.00,,,0.00,Wunderground v.1.15,2013-02-11 21:55:00,
2013-02-11 16:58:00,75.6,66.3,30.08,SE,134,11.0,14.0,73,0.00,,,0.00,Wunderground v.1.15,2013-02-11 21:58:00,
2013-02-11 16:59:00,75.6,65.9,30.08,SSE,152,12.0,14.0,72,0.00,,,0.00,Wunderground v.1.15,2013-02-11 21:59:00,
2013-02-11 17:01:00,75.5,66.2,30.08,SE,136,7.0,10.0,73,0.00,,,0.00,Wunderground v.1.15,2013-02-11 22:01:00,
2013-02-11 17:04:00,75.4,66.1,30.08,SSE,148,5.0,10.0,73,0.00,,,0.00,Wunderground v.1.15,2013-02-11 22:04:00,
2013-02-11 17:06:00,75.3,66.4,30.08,SSE,163,5.0,10.0,74,0.00,,,0.00,Wunderground v.1.15,2013-02-11 22:06:00,
2013-02-11 17:07:00,75.3,66.4,30.08,South,177,4.0,10.0,74,0.00,,,0.00,Wunderground v.1.15,2013-02-11 22:07:00,
2013-02-11 17:09:00,75.3,66.4,30.08,SE,132,1.0,10.0,74,0.00,,,0.00,Wunderground v.1.15,2013-02-11 22:09:00,
2013-02-11 17:10:00,75.3,66.4,30.08,SSE,150,9.0,9.0,74,0.00,,,0.00,Wunderground v.1.15,2013-02-11 22:10:00,
2013-02-11 17:12:00,75.2,66.3,30.08,SE,142,3.0,13.0,74,0.00,,,0.00,Wunderground v.1.15,2013-02-11 22:12:00,
2013-02-11 17:13:00,75.2,66.3,30.08,SE,146,7.0,13.0,74,0.00,,,0.00,Wunderground v.1.15,2013-02-11 22:13:00,
2013-02-11 17:14:00,75.2,66.3,30.08,ESE,120,9.0,13.0,74,0.00,,,0.00,Wunderground v.1.15,2013-02-11 22:14:00,
2013-02-11 17:15:00,75.1,66.2,30.08,SE,144,9.0,13.0,74,0.00,,,0.00,Wunderground v.1.15,2013-02-11 22:15:00,
2013-02-11 17:17:00,75.0,66.1,30.08,SSE,153,7.0,13.0,74,0.00,,,0.00,Wunderground v.1.15,2013-02-11 22:17:00,
2013-02-11 17:18:00,75.0,66.1,30.08,SE,139,7.0,13.0,74,0.00,,,0.00,Wunderground v.1.15,2013-02-11 22:18:00,
2013-02-11 17:19:00,75.0,66.1,30.08,SE,132,1.0,7.0,74,0.00,,,0.00,Wunderground v.1.15,2013-02-11 22:19:00,
2013-02-11 17:20:00,75.0,66.1,30.08,ESE,115,7.0,7.0,74,0.00,,,0.00,Wunderground v.1.15,2013-02-11 22:20:00,
2013-02-11 17:22:00,75.0,66.5,30.08,SE,134,4.0,9.0,75,0.00,,,0.00,Wunderground v.1.15,2013-02-11 22:22:00,
2013-02-11 17:23:00,74.9,66.1,30.08,SSE,165,1.0,9.0,74,0.00,,,0.00,Wunderground v.1.15,2013-02-11 22:23:00,
2013-02-11 17:25:00,74.9,66.1,30.08,SE,139,6.0,9.0,74,0.00,,,0.00,Wunderground v.1.15,2013-02-11 22:25:00,
2013-02-11 17:27:00,74.9,66.1,30.08,SE,134,2.0,9.0,74,0.00,,,0.00,Wunderground v.1.15,2013-02-11 22:27:00,
2013-02-11 17:29:00,74.9,66.1,30.08,ESE,121,6.0,9.0,74,0.00,,,0.00,Wunderground v.1.15,2013-02-11 22:29:00,
2013-02-11 17:30:00,74.8,66.0,30.08,SE,138,9.0,9.0,74,0.00,,,0.00,Wunderground v.1.15,2013-02-11 22:30:00,
2013-02-11 17:31:00,74.8,66.3,30.08,SE,145,8.0,11.0,75,0.00,,,0.00,Wunderground v.1.15,2013-02-11 22:31:00,
2013-02-11 17:33:00,74.8,66.0,30.08,SSE,150,5.0,11.0,74,0.00,,,0.00,Wunderground v.1.15,2013-02-11 22:33:00,
2013-02-11 17:34:00,74.7,66.2,30.08,SE,144,9.0,11.0,75,0.00,,,0.00,Wunderground v.1.15,2013-02-11 22:34:00,
2013-02-11 17:35:00,74.6,66.1,30.08,SE,134,5.0,11.0,75,0.00,,,0.00,Wunderground v.1.15,2013-02-11 22:35:00,
2013-02-11 17:36:00,74.6,66.1,30.08,SSE,152,6.0,11.0,75,0.00,,,0.00,Wunderground v.1.15,2013-02-11 22:36:00,
2013-02-11 17:38:00,74.6,66.1,30.08,SSE,148,6.0,11.0,75,0.00,,,0.00,Wunderground v.1.15,2013-02-11 22:38:00,
2013-02-11 17:40:00,74.5,66.1,30.08,ESE,106,8.0,10.0,75,0.00,,,0.00,Wunderground v.1.15,2013-02-11 22:40:00,
2013-02-11 17:43:00,74.4,66.0,30.08,SSE,151,6.0,10.0,75,0.00,,,0.00,Wunderground v.1.15,2013-02-11 22:43:00,
2013-02-11 17:45:00,74.3,65.9,30.08,SSE,153,4.0,10.0,75,0.00,,,0.00,Wunderground v.1.15,2013-02-11 22:45:00,
2013-02-11 17:46:00,74.3,65.9,30.08,SE,138,4.0,10.0,75,0.00,,,0.00,Wunderground v.1.15,2013-02-11 22:46:00,
2013-02-11 17:48:00,74.3,66.2,30.08,SE,146,2.0,10.0,76,0.00,,,0.00,Wunderground v.1.15,2013-02-11 22:48:00,
2013-02-11 17:50:00,74.2,66.1,30.08,South,175,5.0,7.0,76,0.00,,,0.00,Wunderground v.1.15,2013-02-11 22:50:00,
2013-02-11 17:52:00,74.2,66.1,30.08,SSE,160,7.0,8.0,76,0.00,,,0.00,Wunderground v.1.15,2013-02-11 22:52:00,
2013-02-11 17:53:00,74.1,66.0,30.08,SE,134,5.0,9.0,76,0.00,,,0.00,Wunderground v.1.15,2013-02-11 22:53:00,
2013-02-11 17:54:00,74.1,66.0,30.08,SE,129,2.0,9.0,76,0.00,,,0.00,Wunderground v.1.15,2013-02-11 22:54:00,
2013-02-11 17:56:00,74.0,66.3,30.08,SSE,156,8.0,9.0,77,0.00,,,0.00,Wunderground v.1.15,2013-02-11 22:56:00,
2013-02-11 17:58:00,74.0,66.0,30.08,SE,138,7.0,9.0,76,0.00,,,0.00,Wunderground v.1.15,2013-02-11 22:58:00,
2013-02-11 17:59:00,74.0,66.0,30.08,SE,128,5.0,9.0,76,0.00,,,0.00,Wunderground v.1.15,2013-02-11 22:59:00,
2013-02-11 18:00:00,73.9,66.2,30.08,SSE,165,1.0,5.0,77,0.00,,,0.00,Wunderground v.1.15,2013-02-11 23:00:00,
2013-02-11 18:01:00,73.9,66.2,30.08,SE,128,4.0,7.0,77,0.00,,,0.00,Wunderground v.1.15,2013-02-11 23:01:00,
2013-02-11 18:03:00,73.9,66.2,30.08,SE,128,4.0,7.0,77,0.00,,,0.00,Wunderground v.1.15,2013-02-11 23:03:00,
2013-02-11 18:04:00,73.9,66.2,30.08,SE,132,0.0,7.0,77,0.00,,,0.00,Wunderground v.1.15,2013-02-11 23:04:00,
2013-02-11 18:06:00,73.8,66.1,30.08,SE,134,0.0,7.0,77,0.00,,,0.00,Wunderground v.1.15,2013-02-11 23:06:00,
2013-02-11 18:09:00,73.7,66.0,30.08,SE,138,7.0,8.0,77,0.00,,,0.00,Wunderground v.1.15,2013-02-11 23:09:00,
2013-02-11 18:11:00,73.6,66.3,30.08,SE,141,0.0,5.0,78,0.00,,,0.00,Wunderground v.1.15,2013-02-11 23:11:00,
2013-02-11 18:14:00,73.5,66.2,30.08,SE,130,2.0,6.0,78,0.00,,,0.00,Wunderground v.1.15,2013-02-11 23:14:00,
2013-02-11 18:16:00,73.5,66.2,30.08,SSE,159,2.0,13.0,78,0.00,,,0.00,Wunderground v.1.15,2013-02-11 23:16:00,
2013-02-11 18:17:00,73.5,66.2,30.08,SE,128,7.0,13.0,78,0.00,,,0.00,Wunderground v.1.15,2013-02-11 23:17:00,
2013-02-11 18:19:00,73.4,65.7,30.08,SE,144,4.0,4.0,77,0.00,,,0.00,Wunderground v.1.15,2013-02-11 23:19:00,
2013-02-11 18:20:00,73.4,66.1,30.08,SE,144,0.0,4.0,78,0.00,,,0.00,Wunderground v.1.15,2013-02-11 23:20:00,
2013-02-11 18:21:00,73.4,66.1,30.08,SE,132,4.0,6.0,78,0.00,,,0.00,Wunderground v.1.15,2013-02-11 23:21:00,
2013-02-11 18:22:00,73.4,66.1,30.08,SE,136,5.0,6.0,78,0.00,,,0.00,Wunderground v.1.15,2013-02-11 23:22:00,
2013-02-11 18:25:00,73.4,66.1,30.08,SE,136,3.0,8.0,78,0.00,,,0.00,Wunderground v.1.15,2013-02-11 23:25:00,
2013-02-11 18:26:00,73.3,66.0,30.08,SSE,150,2.0,8.0,78,0.00,,,0.00,Wunderground v.1.15,2013-02-11 23:26:00,
2013-02-11 18:27:00,73.3,66.0,30.08,SSE,155,5.0,8.0,78,0.00,,,0.00,Wunderground v.1.15,2013-02-11 23:27:00,
2013-02-11 18:30:00,73.2,65.9,30.08,SSE,153,0.0,4.0,78,0.00,,,0.00,Wunderground v.1.15,2013-02-11 23:30:00,
2013-02-11 18:31:00,73.2,65.9,30.08,SE,146,5.0,5.0,78,0.00,,,0.00,Wunderground v.1.15,2013-02-11 23:31:00,
2013-02-11 18:33:00,73.1,65.8,30.08,SE,140,0.0,5.0,78,0.00,,,0.00,Wunderground v.1.15,2013-02-11 23:33:00,
2013-02-11 18:35:00,73.1,65.8,30.08,SSE,153,5.0,8.0,78,0.00,,,0.00,Wunderground v.1.15,2013-02-11 23:35:00,
2013-02-11 18:37:00,73.1,66.2,30.08,SSE,165,4.0,8.0,79,0.00,,,0.00,Wunderground v.1.15,2013-02-11 23:37:00,
2013-02-11 18:38:00,73.1,66.2,30.08,SSE,151,0.0,8.0,79,0.00,,,0.00,Wunderground v.1.15,2013-02-11 23:38:00,
2013-02-11 18:40:00,73.1,66.2,30.08,SSE,148,0.0,6.0,79,0.00,,,0.00,Wunderground v.1.15,2013-02-11 23:40:00,
2013-02-11 18:42:00,73.0,66.1,30.08,SE,132,6.0,8.0,79,0.00,,,0.00,Wunderground v.1.15,2013-02-11 23:42:00,
2013-02-11 18:43:00,73.0,66.1,30.08,SE,132,5.0,8.0,79,0.00,,,0.00,Wunderground v.1.15,2013-02-11 23:43:00,
2013-02-11 18:44:00,73.0,66.1,30.08,SSE,151,7.0,8.0,79,0.00,,,0.00,Wunderground v.1.15,2013-02-11 23:44:00,
2013-02-11 18:45:00,73.0,66.1,30.08,SE,144,0.0,8.0,79,0.00,,,0.00,Wunderground v.1.15,2013-02-11 23:45:00,
2013-02-11 18:47:00,73.0,66.1,30.08,SE,146,0.0,8.0,79,0.00,,,0.00,Wunderground v.1.15,2013-02-11 23:47:00,
2013-02-11 18:49:00,72.9,66.0,30.08,South,170,0.0,8.0,79,0.00,,,0.00,Wunderground v.1.15,2013-02-11 23:49:00,
2013-02-11 18:52:00,72.9,66.0,30.08,SE,132,4.0,8.0,79,0.00,,,0.00,Wunderground v.1.15,2013-02-11 23:52:00,
2013-02-11 18:53:00,72.8,65.9,30.08,SE,140,6.0,9.0,79,0.00,,,0.00,Wunderground v.1.15,2013-02-11 23:53:00,
2013-02-11 18:54:00,72.8,66.3,30.08,SSE,150,7.0,9.0,80,0.00,,,0.00,Wunderground v.1.15,2013-02-11 23:54:00,
2013-02-11 18:57:00,72.9,66.4,30.08,SE,137,5.0,9.0,80,0.00,,,0.00,Wunderground v.1.15,2013-02-11 23:57:00,
2013-02-11 18:59:00,72.9,66.4,30.08,SE,142,0.0,9.0,80,0.00,,,0.00,Wunderground v.1.15,2013-02-11 23:59:00,
2013-02-11 19:00:00,72.9,66.4,30.08,SE,142,0.0,4.0,80,0.00,,,0.00,Wunderground v.1.15,2013-02-12 00:00:00,
2013-02-11 19:03:00,72.8,66.3,30.08,SE,142,0.0,5.0,80,0.00,,,0.00,Wunderground v.1.15,2013-02-12 00:03:00,
2013-02-11 19:04:00,72.8,66.3,30.08,SSE,153,4.0,5.0,80,0.00,,,0.00,Wunderground v.1.15,2013-02-12 00:04:00,
2013-02-11 19:05:00,72.8,66.3,30.08,South,169,0.0,5.0,80,0.00,,,0.00,Wunderground v.1.15,2013-02-12 00:05:00,
2013-02-11 19:06:00,72.8,66.3,30.08,SE,133,0.0,6.0,80,0.00,,,0.00,Wunderground v.1.15,2013-02-12 00:06:00,
2013-02-11 19:08:00,72.7,66.2,30.08,SE,136,0.0,6.0,80,0.00,,,0.00,Wunderground v.1.15,2013-02-12 00:08:00,
2013-02-11 19:09:00,72.7,66.2,30.08,SE,146,0.0,1.0,80,0.00,,,0.00,Wunderground v.1.15,2013-02-12 00:09:00,
2013-02-11 19:10:00,72.7,66.2,30.08,SE,141,6.0,6.0,80,0.00,,,0.00,Wunderground v.1.15,2013-02-12 00:10:00,
2013-02-11 19:11:00,72.6,66.1,30.08,SE,140,6.0,6.0,80,0.00,,,0.00,Wunderground v.1.15,2013-02-12 00:11:00,
2013-02-11 19:15:00,72.6,66.1,30.08,SE,132,1.0,6.0,80,0.00,,,0.00,Wunderground v.1.15,2013-02-12 00:15:00,
2013-02-11 19:16:00,72.6,66.1,30.08,SE,132,0.0,6.0,80,0.00,,,0.00,Wunderground v.1.15,2013-02-12 00:16:00,
2013-02-11 19:20:00,72.5,66.3,30.08,SE,138,0.0,2.0,81,0.00,,,0.00,Wunderground v.1.15,2013-02-12 00:20:00,
2013-02-11 19:22:00,72.5,66.3,30.08,SE,128,3.0,6.0,81,0.00,,,0.00,Wunderground v.1.15,2013-02-12 00:22:00,
2013-02-11 19:25:00,72.5,66.3,30.08,SSE,153,1.0,6.0,81,0.00,,,0.00,Wunderground v.1.15,2013-02-12 00:25:00,
2013-02-11 19:27:00,72.5,66.3,30.09,SE,128,2.0,7.0,81,0.00,,,0.00,Wunderground v.1.15,2013-02-12 00:27:00,
2013-02-11 19:28:00,72.4,66.2,30.09,SE,128,0.0,7.0,81,0.00,,,0.00,Wunderground v.1.15,2013-02-12 00:28:00,
2013-02-11 19:30:00,72.4,66.2,30.09,SSE,150,5.0,5.0,81,0.00,,,0.00,Wunderground v.1.15,2013-02-12 00:30:00,
2013-02-11 19:32:00,72.4,66.2,30.09,SSE,147,0.0,5.0,81,0.00,,,0.00,Wunderground v.1.15,2013-02-12 00:32:00,
2013-02-11 19:35:00,72.3,66.1,30.09,SSE,147,0.0,5.0,81,0.00,,,0.00,Wunderground v.1.15,2013-02-12 00:35:00,
2013-02-11 19:36:00,72.3,66.1,30.09,SSE,147,0.0,5.0,81,0.00,,,0.00,Wunderground v.1.15,2013-02-12 00:36:00,
2013-02-11 19:38:00,72.2,66.0,30.09,SSE,147,0.0,5.0,81,0.00,,,0.00,Wunderground v.1.15,2013-02-12 00:38:00,
2013-02-11 19:40:00,72.2,66.4,30.09,SSE,147,0.0,4.0,82,0.00,,,0.00,Wunderground v.1.15,2013-02-12 00:40:00,
2013-02-11 19:41:00,72.2,66.0,30.09,SSE,147,0.0,4.0,81,0.00,,,0.00,Wunderground v.1.15,2013-02-12 00:41:00,
2013-02-11 19:42:00,72.1,65.9,30.09,SSE,147,0.0,4.0,81,0.00,,,0.00,Wunderground v.1.15,2013-02-12 00:42:00,
2013-02-11 19:43:00,72.1,66.3,30.09,SSE,147,0.0,4.0,82,0.00,,,0.00,Wunderground v.1.15,2013-02-12 00:43:00,
2013-02-11 19:45:00,72.1,66.3,30.09,SSE,147,0.0,4.0,82,0.00,,,0.00,Wunderground v.1.15,2013-02-12 00:45:00,
2013-02-11 19:46:00,72.1,66.3,30.09,SSE,147,0.0,4.0,82,0.00,,,0.00,Wunderground v.1.15,2013-02-12 00:46:00,
2013-02-11 19:48:00,72.0,66.2,30.09,SSE,147,0.0,4.0,82,0.00,,,0.00,Wunderground v.1.15,2013-02-12 00:48:00,
2013-02-11 19:50:00,71.9,66.1,30.09,SSE,147,0.0,0.0,82,0.00,,,0.00,Wunderground v.1.15,2013-02-12 00:50:00,
2013-02-11 19:51:00,71.9,66.1,30.09,SSE,147,0.0,0.0,82,0.00,,,0.00,Wunderground v.1.15,2013-02-12 00:51:00,
2013-02-11 19:53:00,71.8,66.0,30.09,SSE,147,0.0,1.0,82,0.00,,,0.00,Wunderground v.1.15,2013-02-12 00:53:00,
2013-02-11 19:56:00,71.8,66.0,30.09,SSE,147,0.0,1.0,82,0.00,,,0.00,Wunderground v.1.15,2013-02-12 00:56:00,
2013-02-11 19:58:00,71.7,66.3,30.09,SSE,147,0.0,1.0,83,0.00,,,0.00,Wunderground v.1.15,2013-02-12 00:58:00,
2013-02-11 19:59:00,71.7,66.3,30.09,SSE,147,0.0,1.0,83,0.00,,,0.00,Wunderground v.1.15,2013-02-12 00:59:00,
2013-02-11 20:01:00,71.7,66.3,30.09,SSE,147,0.0,1.0,83,0.00,,,0.00,Wunderground v.1.15,2013-02-12 01:01:00,
2013-02-11 20:04:00,71.5,66.1,30.09,SSE,147,0.0,1.0,83,0.00,,,0.00,Wunderground v.1.15,2013-02-12 01:04:00,
2013-02-11 23:35:00,64.7,62.9,30.09,SSE,147,0.0,0.0,94,0.00,,,0.00,Wunderground v.1.15,2013-02-12 04:35:00,
2013-02-11 23:36:00,64.7,62.9,30.09,SSE,147,0.0,0.0,94,0.00,,,0.00,Wunderground v.1.15,2013-02-12 04:36:00,
2013-02-11 23:40:00,64.7,62.9,30.09,SSE,147,0.0,0.0,94,0.00,,,0.00,Wunderground v.1.15,2013-02-12 04:40:00,
2013-02-11 23:41:00,64.7,62.9,30.09,SSE,147,0.0,0.0,94,0.00,,,0.00,Wunderground v.1.15,2013-02-12 04:41:00,
2013-02-11 23:42:00,64.7,62.9,30.09,SSE,147,0.0,0.0,94,0.00,,,0.00,Wunderground v.1.15,2013-02-12 04:42:00,
2013-02-11 23:43:00,64.7,62.9,30.09,SSE,147,0.0,0.0,94,0.00,,,0.00,Wunderground v.1.15,2013-02-12 04:43:00,
2013-02-11 23:46:00,64.8,63.3,30.09,SSE,147,0.0,0.0,95,0.00,,,0.00,Wunderground v.1.15,2013-02-12 04:46:00,
2013-02-11 23:47:00,64.8,63.3,30.09,SSE,147,0.0,0.0,95,0.00,,,0.00,Wunderground v.1.15,2013-02-12 04:47:00,
2013-02-11 23:48:00,64.9,63.4,30.09,SSE,147,0.0,0.0,95,0.00,,,0.00,Wunderground v.1.15,2013-02-12 04:48:00,
2013-02-11 23:51:00,65.0,63.5,30.09,SSE,147,0.0,0.0,95,0.00,,,0.00,Wunderground v.1.15,2013-02-12 04:51:00,
2013-02-11 23:52:00,65.0,63.5,30.09,SSE,147,0.0,0.0,95,0.00,,,0.00,Wunderground v.1.15,2013-02-12 04:52:00,
2013-02-11 23:53:00,65.0,63.5,30.09,SSE,147,0.0,0.0,95,0.00,,,0.00,Wunderground v.1.15,2013-02-12 04:53:00,
2013-02-11 23:57:00,65.4,63.9,30.09,SSE,147,0.0,0.0,95,0.00,,,0.00,Wunderground v.1.15,2013-02-12 04:57:00,
2013-02-11 23:58:00,65.5,64.0,30.09,SSE,147,0.0,0.0,95,0.00,,,0.00,Wunderground v.1.15,2013-02-12 04:58:00,
2013-02-11 23:59:00,65.5,64.0,30.09,SSE,147,0.0,0.0,95,0.00,,,0.00,Wunderground v.1.15,2013-02-12 04:59:00,